<?xml version="1.0" encoding="UTF-8" standalone="no" ?>
<gpx xmlns="http://www.topografix.com/GPX/1/1" xmlns:xsi="http://www.w3.org/2001/XMLSchema-instance" xsi:schemaLocation="http://www.topografix.com/GPX/1/1 http://www.topografix.com/GPX/1/1/gpx.xsd" version="1.1" creator="VisuGPX - https://www.visugpx.com">
  <metadata>
    <name>2025-02-14  Randonnée TwoNav</name>
    <desc><![CDATA[2025-02-14_152337.trk]]></desc>
  </metadata>
  <trk>
    <name><![CDATA[2025-02-14  Randonnée TwoNav_1]]></name>
    <trkseg>
      <trkpt lat="48.09058" lon="6.55514">
        <ele>480.5</ele>
        <time>2025-02-14T14:23:37Z</time>
      </trkpt>
      <trkpt lat="48.09058" lon="6.55514">
        <ele>480.5</ele>
        <time>2025-02-14T14:23:38Z</time>
      </trkpt>
      <trkpt lat="48.09065" lon="6.55506">
        <ele>480.3</ele>
        <time>2025-02-14T14:23:50Z</time>
      </trkpt>
      <trkpt lat="48.09072" lon="6.55495">
        <ele>480.2</ele>
        <time>2025-02-14T14:23:57Z</time>
      </trkpt>
      <trkpt lat="48.09073" lon="6.55481">
        <ele>480.1</ele>
        <time>2025-02-14T14:24:06Z</time>
      </trkpt>
      <trkpt lat="48.09082" lon="6.5548">
        <ele>479.8</ele>
        <time>2025-02-14T14:24:19Z</time>
      </trkpt>
      <trkpt lat="48.0909" lon="6.55489">
        <ele>480</ele>
        <time>2025-02-14T14:24:26Z</time>
      </trkpt>
      <trkpt lat="48.09097" lon="6.55498">
        <ele>480.2</ele>
        <time>2025-02-14T14:24:31Z</time>
      </trkpt>
      <trkpt lat="48.09103" lon="6.55509">
        <ele>480.4</ele>
        <time>2025-02-14T14:24:37Z</time>
      </trkpt>
      <trkpt lat="48.09112" lon="6.55515">
        <ele>480.5</ele>
        <time>2025-02-14T14:24:44Z</time>
      </trkpt>
      <trkpt lat="48.09121" lon="6.5552">
        <ele>480.6</ele>
        <time>2025-02-14T14:24:51Z</time>
      </trkpt>
      <trkpt lat="48.0913" lon="6.55525">
        <ele>480.6</ele>
        <time>2025-02-14T14:24:59Z</time>
      </trkpt>
      <trkpt lat="48.09137" lon="6.55536">
        <ele>480.5</ele>
        <time>2025-02-14T14:25:07Z</time>
      </trkpt>
      <trkpt lat="48.09145" lon="6.55544">
        <ele>480.5</ele>
        <time>2025-02-14T14:25:14Z</time>
      </trkpt>
      <trkpt lat="48.09154" lon="6.55553">
        <ele>480.5</ele>
        <time>2025-02-14T14:25:21Z</time>
      </trkpt>
      <trkpt lat="48.09162" lon="6.55562">
        <ele>480.4</ele>
        <time>2025-02-14T14:25:28Z</time>
      </trkpt>
      <trkpt lat="48.09169" lon="6.55573">
        <ele>480.4</ele>
        <time>2025-02-14T14:25:35Z</time>
      </trkpt>
      <trkpt lat="48.09178" lon="6.55579">
        <ele>480.4</ele>
        <time>2025-02-14T14:25:42Z</time>
      </trkpt>
      <trkpt lat="48.09188" lon="6.5558">
        <ele>480.4</ele>
        <time>2025-02-14T14:25:50Z</time>
      </trkpt>
      <trkpt lat="48.09194" lon="6.55567">
        <ele>479.4</ele>
        <time>2025-02-14T14:25:55Z</time>
      </trkpt>
      <trkpt lat="48.09201" lon="6.55555">
        <ele>478.4</ele>
        <time>2025-02-14T14:26:02Z</time>
      </trkpt>
      <trkpt lat="48.09206" lon="6.55543">
        <ele>477.4</ele>
        <time>2025-02-14T14:26:09Z</time>
      </trkpt>
      <trkpt lat="48.09212" lon="6.55529">
        <ele>476.4</ele>
        <time>2025-02-14T14:26:17Z</time>
      </trkpt>
      <trkpt lat="48.09219" lon="6.55518">
        <ele>475.4</ele>
        <time>2025-02-14T14:26:26Z</time>
      </trkpt>
      <trkpt lat="48.09223" lon="6.55505">
        <ele>474.3</ele>
        <time>2025-02-14T14:26:33Z</time>
      </trkpt>
      <trkpt lat="48.09228" lon="6.55493">
        <ele>473</ele>
        <time>2025-02-14T14:26:38Z</time>
      </trkpt>
      <trkpt lat="48.09234" lon="6.55482">
        <ele>471.5</ele>
        <time>2025-02-14T14:26:47Z</time>
      </trkpt>
      <trkpt lat="48.0924" lon="6.55472">
        <ele>469.8</ele>
        <time>2025-02-14T14:26:54Z</time>
      </trkpt>
      <trkpt lat="48.09247" lon="6.55463">
        <ele>468.2</ele>
        <time>2025-02-14T14:27:07Z</time>
      </trkpt>
      <trkpt lat="48.09253" lon="6.55451">
        <ele>466.3</ele>
        <time>2025-02-14T14:27:11Z</time>
      </trkpt>
      <trkpt lat="48.09261" lon="6.55443">
        <ele>464.5</ele>
        <time>2025-02-14T14:27:17Z</time>
      </trkpt>
      <trkpt lat="48.09268" lon="6.55435">
        <ele>462.8</ele>
        <time>2025-02-14T14:27:25Z</time>
      </trkpt>
      <trkpt lat="48.09275" lon="6.55426">
        <ele>461.4</ele>
        <time>2025-02-14T14:27:37Z</time>
      </trkpt>
      <trkpt lat="48.09282" lon="6.55417">
        <ele>460.2</ele>
        <time>2025-02-14T14:27:42Z</time>
      </trkpt>
      <trkpt lat="48.09292" lon="6.55416">
        <ele>459.1</ele>
        <time>2025-02-14T14:27:48Z</time>
      </trkpt>
      <trkpt lat="48.09298" lon="6.55406">
        <ele>458.2</ele>
        <time>2025-02-14T14:27:54Z</time>
      </trkpt>
      <trkpt lat="48.09308" lon="6.55401">
        <ele>457.3</ele>
        <time>2025-02-14T14:28:01Z</time>
      </trkpt>
      <trkpt lat="48.09317" lon="6.55399">
        <ele>456.6</ele>
        <time>2025-02-14T14:28:09Z</time>
      </trkpt>
      <trkpt lat="48.09326" lon="6.55393">
        <ele>455.7</ele>
        <time>2025-02-14T14:28:17Z</time>
      </trkpt>
      <trkpt lat="48.09335" lon="6.5539">
        <ele>455</ele>
        <time>2025-02-14T14:28:24Z</time>
      </trkpt>
      <trkpt lat="48.09344" lon="6.55382">
        <ele>454.1</ele>
        <time>2025-02-14T14:28:36Z</time>
      </trkpt>
      <trkpt lat="48.09354" lon="6.5538">
        <ele>453.3</ele>
        <time>2025-02-14T14:28:43Z</time>
      </trkpt>
      <trkpt lat="48.09363" lon="6.55375">
        <ele>452.4</ele>
        <time>2025-02-14T14:28:52Z</time>
      </trkpt>
      <trkpt lat="48.09373" lon="6.55372">
        <ele>451.5</ele>
        <time>2025-02-14T14:29:02Z</time>
      </trkpt>
      <trkpt lat="48.09384" lon="6.55369">
        <ele>450.6</ele>
        <time>2025-02-14T14:29:11Z</time>
      </trkpt>
      <trkpt lat="48.09393" lon="6.55365">
        <ele>449.8</ele>
        <time>2025-02-14T14:29:16Z</time>
      </trkpt>
      <trkpt lat="48.09403" lon="6.5536">
        <ele>449</ele>
        <time>2025-02-14T14:29:22Z</time>
      </trkpt>
      <trkpt lat="48.09412" lon="6.55356">
        <ele>448.3</ele>
        <time>2025-02-14T14:29:31Z</time>
      </trkpt>
      <trkpt lat="48.09421" lon="6.55351">
        <ele>447.6</ele>
        <time>2025-02-14T14:29:40Z</time>
      </trkpt>
      <trkpt lat="48.09431" lon="6.55348">
        <ele>447</ele>
        <time>2025-02-14T14:29:48Z</time>
      </trkpt>
      <trkpt lat="48.0944" lon="6.55347">
        <ele>446.4</ele>
        <time>2025-02-14T14:29:56Z</time>
      </trkpt>
      <trkpt lat="48.0945" lon="6.55343">
        <ele>445.9</ele>
        <time>2025-02-14T14:30:05Z</time>
      </trkpt>
      <trkpt lat="48.0946" lon="6.55337">
        <ele>445.3</ele>
        <time>2025-02-14T14:30:14Z</time>
      </trkpt>
      <trkpt lat="48.09468" lon="6.55332">
        <ele>444.6</ele>
        <time>2025-02-14T14:30:19Z</time>
      </trkpt>
      <trkpt lat="48.09477" lon="6.55324">
        <ele>443.8</ele>
        <time>2025-02-14T14:30:27Z</time>
      </trkpt>
      <trkpt lat="48.09485" lon="6.55318">
        <ele>443.1</ele>
        <time>2025-02-14T14:30:35Z</time>
      </trkpt>
      <trkpt lat="48.09493" lon="6.55308">
        <ele>442.1</ele>
        <time>2025-02-14T14:30:44Z</time>
      </trkpt>
      <trkpt lat="48.09501" lon="6.553">
        <ele>441</ele>
        <time>2025-02-14T14:30:53Z</time>
      </trkpt>
      <trkpt lat="48.09509" lon="6.55291">
        <ele>439.9</ele>
        <time>2025-02-14T14:31:02Z</time>
      </trkpt>
      <trkpt lat="48.09515" lon="6.55279">
        <ele>438.8</ele>
        <time>2025-02-14T14:31:10Z</time>
      </trkpt>
      <trkpt lat="48.09522" lon="6.55271">
        <ele>437.9</ele>
        <time>2025-02-14T14:31:18Z</time>
      </trkpt>
      <trkpt lat="48.09529" lon="6.55261">
        <ele>437.1</ele>
        <time>2025-02-14T14:31:25Z</time>
      </trkpt>
      <trkpt lat="48.09537" lon="6.55252">
        <ele>436.4</ele>
        <time>2025-02-14T14:31:33Z</time>
      </trkpt>
      <trkpt lat="48.09545" lon="6.55243">
        <ele>436</ele>
        <time>2025-02-14T14:31:41Z</time>
      </trkpt>
      <trkpt lat="48.09553" lon="6.55233">
        <ele>435.7</ele>
        <time>2025-02-14T14:31:48Z</time>
      </trkpt>
      <trkpt lat="48.0956" lon="6.55222">
        <ele>435.5</ele>
        <time>2025-02-14T14:31:55Z</time>
      </trkpt>
      <trkpt lat="48.09567" lon="6.55214">
        <ele>435.4</ele>
        <time>2025-02-14T14:32:02Z</time>
      </trkpt>
      <trkpt lat="48.09575" lon="6.55205">
        <ele>435.2</ele>
        <time>2025-02-14T14:32:10Z</time>
      </trkpt>
      <trkpt lat="48.09583" lon="6.55196">
        <ele>435.1</ele>
        <time>2025-02-14T14:32:19Z</time>
      </trkpt>
      <trkpt lat="48.09592" lon="6.55188">
        <ele>434.9</ele>
        <time>2025-02-14T14:32:29Z</time>
      </trkpt>
      <trkpt lat="48.09599" lon="6.5518">
        <ele>434.6</ele>
        <time>2025-02-14T14:32:37Z</time>
      </trkpt>
      <trkpt lat="48.09607" lon="6.5517">
        <ele>434.3</ele>
        <time>2025-02-14T14:32:49Z</time>
      </trkpt>
      <trkpt lat="48.09615" lon="6.55162">
        <ele>434</ele>
        <time>2025-02-14T14:32:57Z</time>
      </trkpt>
      <trkpt lat="48.09623" lon="6.55156">
        <ele>433.6</ele>
        <time>2025-02-14T14:33:05Z</time>
      </trkpt>
      <trkpt lat="48.09632" lon="6.55159">
        <ele>433.2</ele>
        <time>2025-02-14T14:33:13Z</time>
      </trkpt>
      <trkpt lat="48.09641" lon="6.55156">
        <ele>432.9</ele>
        <time>2025-02-14T14:33:19Z</time>
      </trkpt>
      <trkpt lat="48.09651" lon="6.55154">
        <ele>432.8</ele>
        <time>2025-02-14T14:33:26Z</time>
      </trkpt>
      <trkpt lat="48.0966" lon="6.55151">
        <ele>432.5</ele>
        <time>2025-02-14T14:33:32Z</time>
      </trkpt>
      <trkpt lat="48.09668" lon="6.55142">
        <ele>432</ele>
        <time>2025-02-14T14:33:40Z</time>
      </trkpt>
      <trkpt lat="48.09675" lon="6.55134">
        <ele>431.6</ele>
        <time>2025-02-14T14:33:47Z</time>
      </trkpt>
      <trkpt lat="48.09681" lon="6.55123">
        <ele>431.1</ele>
        <time>2025-02-14T14:33:55Z</time>
      </trkpt>
      <trkpt lat="48.09688" lon="6.55113">
        <ele>430.8</ele>
        <time>2025-02-14T14:34:02Z</time>
      </trkpt>
      <trkpt lat="48.09697" lon="6.55108">
        <ele>430.6</ele>
        <time>2025-02-14T14:34:10Z</time>
      </trkpt>
      <trkpt lat="48.09706" lon="6.55104">
        <ele>430.6</ele>
        <time>2025-02-14T14:34:17Z</time>
      </trkpt>
      <trkpt lat="48.09716" lon="6.55105">
        <ele>430.6</ele>
        <time>2025-02-14T14:34:24Z</time>
      </trkpt>
      <trkpt lat="48.09726" lon="6.55104">
        <ele>430.6</ele>
        <time>2025-02-14T14:34:31Z</time>
      </trkpt>
      <trkpt lat="48.09735" lon="6.55103">
        <ele>430.7</ele>
        <time>2025-02-14T14:34:38Z</time>
      </trkpt>
      <trkpt lat="48.09745" lon="6.55103">
        <ele>430.7</ele>
        <time>2025-02-14T14:34:45Z</time>
      </trkpt>
      <trkpt lat="48.09754" lon="6.551">
        <ele>430.8</ele>
        <time>2025-02-14T14:34:53Z</time>
      </trkpt>
      <trkpt lat="48.09763" lon="6.55098">
        <ele>430.8</ele>
        <time>2025-02-14T14:35:01Z</time>
      </trkpt>
      <trkpt lat="48.09769" lon="6.55097">
        <ele>430.9</ele>
        <time>2025-02-14T14:35:20Z</time>
      </trkpt>
      <trkpt lat="48.09769" lon="6.55097">
        <ele>430.9</ele>
        <time>2025-02-14T14:35:21Z</time>
      </trkpt>
      <trkpt lat="48.09769" lon="6.55097">
        <ele>430.9</ele>
        <time>2025-02-14T14:35:22Z</time>
      </trkpt>
      <trkpt lat="48.09769" lon="6.55098">
        <ele>430.9</ele>
        <time>2025-02-14T14:35:23Z</time>
      </trkpt>
      <trkpt lat="48.0977" lon="6.55098">
        <ele>430.9</ele>
        <time>2025-02-14T14:35:24Z</time>
      </trkpt>
      <trkpt lat="48.09779" lon="6.55099">
        <ele>431</ele>
        <time>2025-02-14T14:35:31Z</time>
      </trkpt>
      <trkpt lat="48.09788" lon="6.55104">
        <ele>431.1</ele>
        <time>2025-02-14T14:35:40Z</time>
      </trkpt>
      <trkpt lat="48.09797" lon="6.5511">
        <ele>431</ele>
        <time>2025-02-14T14:35:47Z</time>
      </trkpt>
      <trkpt lat="48.09807" lon="6.5511">
        <ele>430.8</ele>
        <time>2025-02-14T14:35:54Z</time>
      </trkpt>
      <trkpt lat="48.09815" lon="6.55116">
        <ele>430.6</ele>
        <time>2025-02-14T14:36:02Z</time>
      </trkpt>
      <trkpt lat="48.09822" lon="6.55124">
        <ele>430.3</ele>
        <time>2025-02-14T14:36:07Z</time>
      </trkpt>
      <trkpt lat="48.0983" lon="6.5513">
        <ele>430.1</ele>
        <time>2025-02-14T14:36:13Z</time>
      </trkpt>
      <trkpt lat="48.09837" lon="6.55138">
        <ele>429.7</ele>
        <time>2025-02-14T14:36:20Z</time>
      </trkpt>
      <trkpt lat="48.09847" lon="6.55144">
        <ele>429.3</ele>
        <time>2025-02-14T14:36:29Z</time>
      </trkpt>
      <trkpt lat="48.09851" lon="6.55157">
        <ele>428.6</ele>
        <time>2025-02-14T14:36:37Z</time>
      </trkpt>
      <trkpt lat="48.0986" lon="6.55163">
        <ele>427.9</ele>
        <time>2025-02-14T14:36:43Z</time>
      </trkpt>
      <trkpt lat="48.09868" lon="6.55169">
        <ele>427.1</ele>
        <time>2025-02-14T14:36:50Z</time>
      </trkpt>
      <trkpt lat="48.09865" lon="6.55156">
        <ele>427.8</ele>
        <time>2025-02-14T14:37:02Z</time>
      </trkpt>
      <trkpt lat="48.09859" lon="6.55145">
        <ele>428.8</ele>
        <time>2025-02-14T14:37:08Z</time>
      </trkpt>
      <trkpt lat="48.09853" lon="6.55133">
        <ele>430.2</ele>
        <time>2025-02-14T14:37:14Z</time>
      </trkpt>
      <trkpt lat="48.09847" lon="6.55123">
        <ele>431.3</ele>
        <time>2025-02-14T14:37:21Z</time>
      </trkpt>
      <trkpt lat="48.0984" lon="6.55113">
        <ele>432.3</ele>
        <time>2025-02-14T14:37:29Z</time>
      </trkpt>
      <trkpt lat="48.09832" lon="6.55103">
        <ele>433.6</ele>
        <time>2025-02-14T14:37:36Z</time>
      </trkpt>
      <trkpt lat="48.09825" lon="6.55094">
        <ele>434.6</ele>
        <time>2025-02-14T14:37:43Z</time>
      </trkpt>
      <trkpt lat="48.09818" lon="6.55084">
        <ele>435.7</ele>
        <time>2025-02-14T14:37:50Z</time>
      </trkpt>
      <trkpt lat="48.09812" lon="6.55073">
        <ele>436.9</ele>
        <time>2025-02-14T14:37:57Z</time>
      </trkpt>
      <trkpt lat="48.09806" lon="6.55061">
        <ele>438</ele>
        <time>2025-02-14T14:38:06Z</time>
      </trkpt>
      <trkpt lat="48.09801" lon="6.55048">
        <ele>439.1</ele>
        <time>2025-02-14T14:38:14Z</time>
      </trkpt>
      <trkpt lat="48.09796" lon="6.55035">
        <ele>440.4</ele>
        <time>2025-02-14T14:38:21Z</time>
      </trkpt>
      <trkpt lat="48.09791" lon="6.55023">
        <ele>441.4</ele>
        <time>2025-02-14T14:38:28Z</time>
      </trkpt>
      <trkpt lat="48.09788" lon="6.55009">
        <ele>442.5</ele>
        <time>2025-02-14T14:38:34Z</time>
      </trkpt>
      <trkpt lat="48.09786" lon="6.54995">
        <ele>443.7</ele>
        <time>2025-02-14T14:38:41Z</time>
      </trkpt>
      <trkpt lat="48.09783" lon="6.54981">
        <ele>445.2</ele>
        <time>2025-02-14T14:38:49Z</time>
      </trkpt>
      <trkpt lat="48.09782" lon="6.54966">
        <ele>446.7</ele>
        <time>2025-02-14T14:38:59Z</time>
      </trkpt>
      <trkpt lat="48.09788" lon="6.54951">
        <ele>448.5</ele>
        <time>2025-02-14T14:39:08Z</time>
      </trkpt>
      <trkpt lat="48.09797" lon="6.54951">
        <ele>449.9</ele>
        <time>2025-02-14T14:39:18Z</time>
      </trkpt>
      <trkpt lat="48.09808" lon="6.54952">
        <ele>451.2</ele>
        <time>2025-02-14T14:39:26Z</time>
      </trkpt>
      <trkpt lat="48.09817" lon="6.54955">
        <ele>452.3</ele>
        <time>2025-02-14T14:39:32Z</time>
      </trkpt>
      <trkpt lat="48.09825" lon="6.54951">
        <ele>453.4</ele>
        <time>2025-02-14T14:39:39Z</time>
      </trkpt>
      <trkpt lat="48.09835" lon="6.5495">
        <ele>454.6</ele>
        <time>2025-02-14T14:39:46Z</time>
      </trkpt>
      <trkpt lat="48.09845" lon="6.54947">
        <ele>455.8</ele>
        <time>2025-02-14T14:39:54Z</time>
      </trkpt>
      <trkpt lat="48.09854" lon="6.54945">
        <ele>456.7</ele>
        <time>2025-02-14T14:40:05Z</time>
      </trkpt>
      <trkpt lat="48.09864" lon="6.54946">
        <ele>457.3</ele>
        <time>2025-02-14T14:40:13Z</time>
      </trkpt>
      <trkpt lat="48.09873" lon="6.54943">
        <ele>457.9</ele>
        <time>2025-02-14T14:40:24Z</time>
      </trkpt>
      <trkpt lat="48.09882" lon="6.5494">
        <ele>458.5</ele>
        <time>2025-02-14T14:40:31Z</time>
      </trkpt>
      <trkpt lat="48.09892" lon="6.54942">
        <ele>458.9</ele>
        <time>2025-02-14T14:40:43Z</time>
      </trkpt>
      <trkpt lat="48.09901" lon="6.54945">
        <ele>459.4</ele>
        <time>2025-02-14T14:40:49Z</time>
      </trkpt>
      <trkpt lat="48.09911" lon="6.54946">
        <ele>459.9</ele>
        <time>2025-02-14T14:40:57Z</time>
      </trkpt>
      <trkpt lat="48.09921" lon="6.54946">
        <ele>460.5</ele>
        <time>2025-02-14T14:41:03Z</time>
      </trkpt>
      <trkpt lat="48.09931" lon="6.54943">
        <ele>461.2</ele>
        <time>2025-02-14T14:41:11Z</time>
      </trkpt>
      <trkpt lat="48.0994" lon="6.54941">
        <ele>462</ele>
        <time>2025-02-14T14:41:17Z</time>
      </trkpt>
      <trkpt lat="48.09949" lon="6.54942">
        <ele>462.9</ele>
        <time>2025-02-14T14:41:25Z</time>
      </trkpt>
      <trkpt lat="48.09959" lon="6.54944">
        <ele>464</ele>
        <time>2025-02-14T14:41:35Z</time>
      </trkpt>
      <trkpt lat="48.09968" lon="6.54943">
        <ele>465</ele>
        <time>2025-02-14T14:41:43Z</time>
      </trkpt>
      <trkpt lat="48.09978" lon="6.54943">
        <ele>466</ele>
        <time>2025-02-14T14:41:51Z</time>
      </trkpt>
      <trkpt lat="48.09987" lon="6.54938">
        <ele>466.8</ele>
        <time>2025-02-14T14:41:59Z</time>
      </trkpt>
      <trkpt lat="48.09996" lon="6.54937">
        <ele>467.6</ele>
        <time>2025-02-14T14:42:06Z</time>
      </trkpt>
      <trkpt lat="48.10005" lon="6.54943">
        <ele>468.3</ele>
        <time>2025-02-14T14:42:13Z</time>
      </trkpt>
      <trkpt lat="48.10014" lon="6.54941">
        <ele>469.1</ele>
        <time>2025-02-14T14:42:24Z</time>
      </trkpt>
      <trkpt lat="48.10023" lon="6.5494">
        <ele>469.8</ele>
        <time>2025-02-14T14:42:29Z</time>
      </trkpt>
      <trkpt lat="48.10031" lon="6.54933">
        <ele>470.6</ele>
        <time>2025-02-14T14:42:40Z</time>
      </trkpt>
      <trkpt lat="48.10041" lon="6.54932">
        <ele>471.3</ele>
        <time>2025-02-14T14:42:46Z</time>
      </trkpt>
      <trkpt lat="48.1005" lon="6.54927">
        <ele>471.9</ele>
        <time>2025-02-14T14:42:59Z</time>
      </trkpt>
      <trkpt lat="48.10056" lon="6.54915">
        <ele>472.4</ele>
        <time>2025-02-14T14:43:05Z</time>
      </trkpt>
      <trkpt lat="48.10061" lon="6.54905">
        <ele>473.2</ele>
        <time>2025-02-14T14:43:16Z</time>
      </trkpt>
      <trkpt lat="48.10053" lon="6.549">
        <ele>473.4</ele>
        <time>2025-02-14T14:43:24Z</time>
      </trkpt>
      <trkpt lat="48.10048" lon="6.54887">
        <ele>473.6</ele>
        <time>2025-02-14T14:43:36Z</time>
      </trkpt>
      <trkpt lat="48.10042" lon="6.54876">
        <ele>473.8</ele>
        <time>2025-02-14T14:43:44Z</time>
      </trkpt>
      <trkpt lat="48.10035" lon="6.54867">
        <ele>473.8</ele>
        <time>2025-02-14T14:43:50Z</time>
      </trkpt>
      <trkpt lat="48.1003" lon="6.54854">
        <ele>473.9</ele>
        <time>2025-02-14T14:43:58Z</time>
      </trkpt>
      <trkpt lat="48.10023" lon="6.54845">
        <ele>474.1</ele>
        <time>2025-02-14T14:44:05Z</time>
      </trkpt>
      <trkpt lat="48.10023" lon="6.54831">
        <ele>474.4</ele>
        <time>2025-02-14T14:44:12Z</time>
      </trkpt>
      <trkpt lat="48.10022" lon="6.54816">
        <ele>474.7</ele>
        <time>2025-02-14T14:44:21Z</time>
      </trkpt>
      <trkpt lat="48.10023" lon="6.54802">
        <ele>475</ele>
        <time>2025-02-14T14:44:29Z</time>
      </trkpt>
      <trkpt lat="48.1002" lon="6.54788">
        <ele>475.3</ele>
        <time>2025-02-14T14:44:39Z</time>
      </trkpt>
      <trkpt lat="48.10024" lon="6.54774">
        <ele>475.5</ele>
        <time>2025-02-14T14:44:47Z</time>
      </trkpt>
      <trkpt lat="48.10032" lon="6.54766">
        <ele>475.7</ele>
        <time>2025-02-14T14:44:52Z</time>
      </trkpt>
      <trkpt lat="48.10039" lon="6.54756">
        <ele>475.8</ele>
        <time>2025-02-14T14:44:58Z</time>
      </trkpt>
      <trkpt lat="48.10038" lon="6.54741">
        <ele>475.9</ele>
        <time>2025-02-14T14:45:05Z</time>
      </trkpt>
      <trkpt lat="48.10042" lon="6.54726">
        <ele>475.9</ele>
        <time>2025-02-14T14:45:16Z</time>
      </trkpt>
      <trkpt lat="48.10047" lon="6.54713">
        <ele>476</ele>
        <time>2025-02-14T14:45:22Z</time>
      </trkpt>
      <trkpt lat="48.10045" lon="6.54699">
        <ele>476</ele>
        <time>2025-02-14T14:45:29Z</time>
      </trkpt>
      <trkpt lat="48.1004" lon="6.54687">
        <ele>475.9</ele>
        <time>2025-02-14T14:45:36Z</time>
      </trkpt>
      <trkpt lat="48.10041" lon="6.54674">
        <ele>475.9</ele>
        <time>2025-02-14T14:45:45Z</time>
      </trkpt>
      <trkpt lat="48.10042" lon="6.54658">
        <ele>475.8</ele>
        <time>2025-02-14T14:45:52Z</time>
      </trkpt>
      <trkpt lat="48.10046" lon="6.54645">
        <ele>475.8</ele>
        <time>2025-02-14T14:45:58Z</time>
      </trkpt>
      <trkpt lat="48.10047" lon="6.5463">
        <ele>475.7</ele>
        <time>2025-02-14T14:46:04Z</time>
      </trkpt>
      <trkpt lat="48.10049" lon="6.54616">
        <ele>475.5</ele>
        <time>2025-02-14T14:46:12Z</time>
      </trkpt>
      <trkpt lat="48.10046" lon="6.546">
        <ele>475.3</ele>
        <time>2025-02-14T14:46:17Z</time>
      </trkpt>
      <trkpt lat="48.10044" lon="6.54586">
        <ele>475.1</ele>
        <time>2025-02-14T14:46:24Z</time>
      </trkpt>
      <trkpt lat="48.10044" lon="6.54572">
        <ele>474.9</ele>
        <time>2025-02-14T14:46:32Z</time>
      </trkpt>
      <trkpt lat="48.10047" lon="6.54558">
        <ele>474.5</ele>
        <time>2025-02-14T14:46:39Z</time>
      </trkpt>
      <trkpt lat="48.10049" lon="6.54542">
        <ele>474</ele>
        <time>2025-02-14T14:46:42Z</time>
      </trkpt>
      <trkpt lat="48.10049" lon="6.54528">
        <ele>473.4</ele>
        <time>2025-02-14T14:46:49Z</time>
      </trkpt>
      <trkpt lat="48.10048" lon="6.54515">
        <ele>472.8</ele>
        <time>2025-02-14T14:47:00Z</time>
      </trkpt>
      <trkpt lat="48.10048" lon="6.54515">
        <ele>472.8</ele>
        <time>2025-02-14T14:47:01Z</time>
      </trkpt>
      <trkpt lat="48.10048" lon="6.54515">
        <ele>472.8</ele>
        <time>2025-02-14T14:47:02Z</time>
      </trkpt>
      <trkpt lat="48.10049" lon="6.54513">
        <ele>472.7</ele>
        <time>2025-02-14T14:47:09Z</time>
      </trkpt>
      <trkpt lat="48.1005" lon="6.54511">
        <ele>472.6</ele>
        <time>2025-02-14T14:47:10Z</time>
      </trkpt>
      <trkpt lat="48.1005" lon="6.5451">
        <ele>472.5</ele>
        <time>2025-02-14T14:47:11Z</time>
      </trkpt>
      <trkpt lat="48.1006" lon="6.54509">
        <ele>472.1</ele>
        <time>2025-02-14T14:47:22Z</time>
      </trkpt>
      <trkpt lat="48.10069" lon="6.54515">
        <ele>472.4</ele>
        <time>2025-02-14T14:47:30Z</time>
      </trkpt>
      <trkpt lat="48.10078" lon="6.5452">
        <ele>472.7</ele>
        <time>2025-02-14T14:47:38Z</time>
      </trkpt>
      <trkpt lat="48.10087" lon="6.54528">
        <ele>472.9</ele>
        <time>2025-02-14T14:47:47Z</time>
      </trkpt>
      <trkpt lat="48.10095" lon="6.54535">
        <ele>473.2</ele>
        <time>2025-02-14T14:47:58Z</time>
      </trkpt>
      <trkpt lat="48.10104" lon="6.54539">
        <ele>473.5</ele>
        <time>2025-02-14T14:48:07Z</time>
      </trkpt>
      <trkpt lat="48.10113" lon="6.54546">
        <ele>473.8</ele>
        <time>2025-02-14T14:48:13Z</time>
      </trkpt>
      <trkpt lat="48.10122" lon="6.54553">
        <ele>474.1</ele>
        <time>2025-02-14T14:48:19Z</time>
      </trkpt>
      <trkpt lat="48.1013" lon="6.5456">
        <ele>474.4</ele>
        <time>2025-02-14T14:48:27Z</time>
      </trkpt>
      <trkpt lat="48.10138" lon="6.54568">
        <ele>474.7</ele>
        <time>2025-02-14T14:48:35Z</time>
      </trkpt>
      <trkpt lat="48.10146" lon="6.54576">
        <ele>475</ele>
        <time>2025-02-14T14:48:43Z</time>
      </trkpt>
      <trkpt lat="48.10156" lon="6.5458">
        <ele>475.4</ele>
        <time>2025-02-14T14:48:50Z</time>
      </trkpt>
      <trkpt lat="48.10164" lon="6.54587">
        <ele>475.6</ele>
        <time>2025-02-14T14:48:56Z</time>
      </trkpt>
      <trkpt lat="48.10173" lon="6.54593">
        <ele>475.9</ele>
        <time>2025-02-14T14:49:02Z</time>
      </trkpt>
      <trkpt lat="48.10181" lon="6.546">
        <ele>476.1</ele>
        <time>2025-02-14T14:49:08Z</time>
      </trkpt>
      <trkpt lat="48.10189" lon="6.54607">
        <ele>476.2</ele>
        <time>2025-02-14T14:49:15Z</time>
      </trkpt>
      <trkpt lat="48.10198" lon="6.54615">
        <ele>476.2</ele>
        <time>2025-02-14T14:49:24Z</time>
      </trkpt>
      <trkpt lat="48.10207" lon="6.54618">
        <ele>476.3</ele>
        <time>2025-02-14T14:49:33Z</time>
      </trkpt>
      <trkpt lat="48.10217" lon="6.54622">
        <ele>476.2</ele>
        <time>2025-02-14T14:49:38Z</time>
      </trkpt>
      <trkpt lat="48.10225" lon="6.54628">
        <ele>476.2</ele>
        <time>2025-02-14T14:49:45Z</time>
      </trkpt>
      <trkpt lat="48.10234" lon="6.54634">
        <ele>476.2</ele>
        <time>2025-02-14T14:49:55Z</time>
      </trkpt>
      <trkpt lat="48.10242" lon="6.5464">
        <ele>476.3</ele>
        <time>2025-02-14T14:50:04Z</time>
      </trkpt>
      <trkpt lat="48.10249" lon="6.54647">
        <ele>476.5</ele>
        <time>2025-02-14T14:50:15Z</time>
      </trkpt>
      <trkpt lat="48.10249" lon="6.54647">
        <ele>476.5</ele>
        <time>2025-02-14T14:50:16Z</time>
      </trkpt>
      <trkpt lat="48.10249" lon="6.54647">
        <ele>476.5</ele>
        <time>2025-02-14T14:50:17Z</time>
      </trkpt>
      <trkpt lat="48.10249" lon="6.54644">
        <ele>476.5</ele>
        <time>2025-02-14T14:50:35Z</time>
      </trkpt>
      <trkpt lat="48.10249" lon="6.54644">
        <ele>476.5</ele>
        <time>2025-02-14T14:50:36Z</time>
      </trkpt>
      <trkpt lat="48.10249" lon="6.54644">
        <ele>476.5</ele>
        <time>2025-02-14T14:50:37Z</time>
      </trkpt>
      <trkpt lat="48.10249" lon="6.54645">
        <ele>476.6</ele>
        <time>2025-02-14T14:50:38Z</time>
      </trkpt>
      <trkpt lat="48.10249" lon="6.54645">
        <ele>476.6</ele>
        <time>2025-02-14T14:50:39Z</time>
      </trkpt>
      <trkpt lat="48.10249" lon="6.54645">
        <ele>476.6</ele>
        <time>2025-02-14T14:50:40Z</time>
      </trkpt>
      <trkpt lat="48.10249" lon="6.54645">
        <ele>476.6</ele>
        <time>2025-02-14T14:50:41Z</time>
      </trkpt>
      <trkpt lat="48.10249" lon="6.54646">
        <ele>476.5</ele>
        <time>2025-02-14T14:50:45Z</time>
      </trkpt>
      <trkpt lat="48.10248" lon="6.54646">
        <ele>476.5</ele>
        <time>2025-02-14T14:50:46Z</time>
      </trkpt>
      <trkpt lat="48.10249" lon="6.54647">
        <ele>476.5</ele>
        <time>2025-02-14T14:50:54Z</time>
      </trkpt>
      <trkpt lat="48.10249" lon="6.54649">
        <ele>476.5</ele>
        <time>2025-02-14T14:50:55Z</time>
      </trkpt>
      <trkpt lat="48.1025" lon="6.54649">
        <ele>476.5</ele>
        <time>2025-02-14T14:50:56Z</time>
      </trkpt>
      <trkpt lat="48.1025" lon="6.54649">
        <ele>476.5</ele>
        <time>2025-02-14T14:50:57Z</time>
      </trkpt>
      <trkpt lat="48.1025" lon="6.54649">
        <ele>476.5</ele>
        <time>2025-02-14T14:50:58Z</time>
      </trkpt>
      <trkpt lat="48.10248" lon="6.54648">
        <ele>476.4</ele>
        <time>2025-02-14T14:52:32Z</time>
      </trkpt>
      <trkpt lat="48.10249" lon="6.54647">
        <ele>476.4</ele>
        <time>2025-02-14T14:52:33Z</time>
      </trkpt>
      <trkpt lat="48.10249" lon="6.54643">
        <ele>476.4</ele>
        <time>2025-02-14T14:52:43Z</time>
      </trkpt>
      <trkpt lat="48.10249" lon="6.54643">
        <ele>476.4</ele>
        <time>2025-02-14T14:52:44Z</time>
      </trkpt>
      <trkpt lat="48.10249" lon="6.54643">
        <ele>476.4</ele>
        <time>2025-02-14T14:52:47Z</time>
      </trkpt>
      <trkpt lat="48.10248" lon="6.54644">
        <ele>476.3</ele>
        <time>2025-02-14T14:52:48Z</time>
      </trkpt>
      <trkpt lat="48.10248" lon="6.54644">
        <ele>476.3</ele>
        <time>2025-02-14T14:52:49Z</time>
      </trkpt>
      <trkpt lat="48.10248" lon="6.54644">
        <ele>476.3</ele>
        <time>2025-02-14T14:52:50Z</time>
      </trkpt>
      <trkpt lat="48.10248" lon="6.54644">
        <ele>476.3</ele>
        <time>2025-02-14T14:52:51Z</time>
      </trkpt>
      <trkpt lat="48.10248" lon="6.54642">
        <ele>476.3</ele>
        <time>2025-02-14T14:53:07Z</time>
      </trkpt>
      <trkpt lat="48.10247" lon="6.54641">
        <ele>476.3</ele>
        <time>2025-02-14T14:53:08Z</time>
      </trkpt>
      <trkpt lat="48.1024" lon="6.54634">
        <ele>476.2</ele>
        <time>2025-02-14T14:53:18Z</time>
      </trkpt>
      <trkpt lat="48.10232" lon="6.54627">
        <ele>476.2</ele>
        <time>2025-02-14T14:53:25Z</time>
      </trkpt>
      <trkpt lat="48.10223" lon="6.54622">
        <ele>476.2</ele>
        <time>2025-02-14T14:53:32Z</time>
      </trkpt>
      <trkpt lat="48.10214" lon="6.54615">
        <ele>476.3</ele>
        <time>2025-02-14T14:53:38Z</time>
      </trkpt>
      <trkpt lat="48.10207" lon="6.54607">
        <ele>476.2</ele>
        <time>2025-02-14T14:53:46Z</time>
      </trkpt>
      <trkpt lat="48.10199" lon="6.54601">
        <ele>476.2</ele>
        <time>2025-02-14T14:53:55Z</time>
      </trkpt>
      <trkpt lat="48.10189" lon="6.54595">
        <ele>476.1</ele>
        <time>2025-02-14T14:54:00Z</time>
      </trkpt>
      <trkpt lat="48.10181" lon="6.5459">
        <ele>475.9</ele>
        <time>2025-02-14T14:54:08Z</time>
      </trkpt>
      <trkpt lat="48.10172" lon="6.54582">
        <ele>475.7</ele>
        <time>2025-02-14T14:54:15Z</time>
      </trkpt>
      <trkpt lat="48.10163" lon="6.54578">
        <ele>475.4</ele>
        <time>2025-02-14T14:54:22Z</time>
      </trkpt>
      <trkpt lat="48.10154" lon="6.54571">
        <ele>475.1</ele>
        <time>2025-02-14T14:54:29Z</time>
      </trkpt>
      <trkpt lat="48.10146" lon="6.54564">
        <ele>474.8</ele>
        <time>2025-02-14T14:54:36Z</time>
      </trkpt>
      <trkpt lat="48.10137" lon="6.54557">
        <ele>474.5</ele>
        <time>2025-02-14T14:54:44Z</time>
      </trkpt>
      <trkpt lat="48.10127" lon="6.54553">
        <ele>474.2</ele>
        <time>2025-02-14T14:54:53Z</time>
      </trkpt>
      <trkpt lat="48.10118" lon="6.54547">
        <ele>473.9</ele>
        <time>2025-02-14T14:55:00Z</time>
      </trkpt>
      <trkpt lat="48.1011" lon="6.54538">
        <ele>473.6</ele>
        <time>2025-02-14T14:55:06Z</time>
      </trkpt>
      <trkpt lat="48.10103" lon="6.54529">
        <ele>473.3</ele>
        <time>2025-02-14T14:55:14Z</time>
      </trkpt>
      <trkpt lat="48.10094" lon="6.54526">
        <ele>473.1</ele>
        <time>2025-02-14T14:55:22Z</time>
      </trkpt>
      <trkpt lat="48.10086" lon="6.54519">
        <ele>472.8</ele>
        <time>2025-02-14T14:55:29Z</time>
      </trkpt>
      <trkpt lat="48.10077" lon="6.54514">
        <ele>472.5</ele>
        <time>2025-02-14T14:55:38Z</time>
      </trkpt>
      <trkpt lat="48.10069" lon="6.54507">
        <ele>472.3</ele>
        <time>2025-02-14T14:55:44Z</time>
      </trkpt>
      <trkpt lat="48.1006" lon="6.54498">
        <ele>472</ele>
        <time>2025-02-14T14:55:52Z</time>
      </trkpt>
      <trkpt lat="48.10052" lon="6.54491">
        <ele>471.7</ele>
        <time>2025-02-14T14:55:59Z</time>
      </trkpt>
      <trkpt lat="48.10044" lon="6.54486">
        <ele>471.5</ele>
        <time>2025-02-14T14:56:06Z</time>
      </trkpt>
      <trkpt lat="48.10035" lon="6.54479">
        <ele>471.2</ele>
        <time>2025-02-14T14:56:15Z</time>
      </trkpt>
      <trkpt lat="48.10025" lon="6.54475">
        <ele>471</ele>
        <time>2025-02-14T14:56:24Z</time>
      </trkpt>
      <trkpt lat="48.10015" lon="6.54472">
        <ele>470.6</ele>
        <time>2025-02-14T14:56:31Z</time>
      </trkpt>
      <trkpt lat="48.10005" lon="6.54471">
        <ele>470.3</ele>
        <time>2025-02-14T14:56:39Z</time>
      </trkpt>
      <trkpt lat="48.09996" lon="6.54466">
        <ele>470</ele>
        <time>2025-02-14T14:56:46Z</time>
      </trkpt>
      <trkpt lat="48.09987" lon="6.54462">
        <ele>469.8</ele>
        <time>2025-02-14T14:56:54Z</time>
      </trkpt>
      <trkpt lat="48.09979" lon="6.54458">
        <ele>469.5</ele>
        <time>2025-02-14T14:57:00Z</time>
      </trkpt>
      <trkpt lat="48.0997" lon="6.54454">
        <ele>469.2</ele>
        <time>2025-02-14T14:57:08Z</time>
      </trkpt>
      <trkpt lat="48.0996" lon="6.54455">
        <ele>468.9</ele>
        <time>2025-02-14T14:57:15Z</time>
      </trkpt>
      <trkpt lat="48.09956" lon="6.54455">
        <ele>468.8</ele>
        <time>2025-02-14T14:57:23Z</time>
      </trkpt>
      <trkpt lat="48.09956" lon="6.54455">
        <ele>468.8</ele>
        <time>2025-02-14T14:57:24Z</time>
      </trkpt>
      <trkpt lat="48.09956" lon="6.54456">
        <ele>468.8</ele>
        <time>2025-02-14T14:57:25Z</time>
      </trkpt>
      <trkpt lat="48.09956" lon="6.54455">
        <ele>468.8</ele>
        <time>2025-02-14T14:57:26Z</time>
      </trkpt>
      <trkpt lat="48.09958" lon="6.54441">
        <ele>468.1</ele>
        <time>2025-02-14T14:57:39Z</time>
      </trkpt>
      <trkpt lat="48.0996" lon="6.54428">
        <ele>467.4</ele>
        <time>2025-02-14T14:57:46Z</time>
      </trkpt>
      <trkpt lat="48.09962" lon="6.54413">
        <ele>466.3</ele>
        <time>2025-02-14T14:57:53Z</time>
      </trkpt>
      <trkpt lat="48.09962" lon="6.54399">
        <ele>464.6</ele>
        <time>2025-02-14T14:58:00Z</time>
      </trkpt>
      <trkpt lat="48.09962" lon="6.54384">
        <ele>463.4</ele>
        <time>2025-02-14T14:58:09Z</time>
      </trkpt>
      <trkpt lat="48.09966" lon="6.54371">
        <ele>462.3</ele>
        <time>2025-02-14T14:58:17Z</time>
      </trkpt>
      <trkpt lat="48.09969" lon="6.54359">
        <ele>461.3</ele>
        <time>2025-02-14T14:58:23Z</time>
      </trkpt>
      <trkpt lat="48.09976" lon="6.54351">
        <ele>460.6</ele>
        <time>2025-02-14T14:58:31Z</time>
      </trkpt>
      <trkpt lat="48.09984" lon="6.54342">
        <ele>459.6</ele>
        <time>2025-02-14T14:58:40Z</time>
      </trkpt>
      <trkpt lat="48.0999" lon="6.54332">
        <ele>458.5</ele>
        <time>2025-02-14T14:58:48Z</time>
      </trkpt>
      <trkpt lat="48.09994" lon="6.54319">
        <ele>457.1</ele>
        <time>2025-02-14T14:58:55Z</time>
      </trkpt>
      <trkpt lat="48.10001" lon="6.5431">
        <ele>455.9</ele>
        <time>2025-02-14T14:59:03Z</time>
      </trkpt>
      <trkpt lat="48.1001" lon="6.54304">
        <ele>454.5</ele>
        <time>2025-02-14T14:59:10Z</time>
      </trkpt>
      <trkpt lat="48.10019" lon="6.543">
        <ele>453.7</ele>
        <time>2025-02-14T14:59:16Z</time>
      </trkpt>
      <trkpt lat="48.10028" lon="6.54296">
        <ele>452.8</ele>
        <time>2025-02-14T14:59:21Z</time>
      </trkpt>
      <trkpt lat="48.10037" lon="6.54291">
        <ele>451.9</ele>
        <time>2025-02-14T14:59:29Z</time>
      </trkpt>
      <trkpt lat="48.10046" lon="6.54283">
        <ele>451.1</ele>
        <time>2025-02-14T14:59:36Z</time>
      </trkpt>
      <trkpt lat="48.10055" lon="6.5428">
        <ele>450.3</ele>
        <time>2025-02-14T14:59:43Z</time>
      </trkpt>
      <trkpt lat="48.10064" lon="6.54275">
        <ele>449.7</ele>
        <time>2025-02-14T14:59:50Z</time>
      </trkpt>
      <trkpt lat="48.10072" lon="6.54269">
        <ele>449.1</ele>
        <time>2025-02-14T14:59:56Z</time>
      </trkpt>
      <trkpt lat="48.10082" lon="6.54267">
        <ele>449.1</ele>
        <time>2025-02-14T15:00:02Z</time>
      </trkpt>
      <trkpt lat="48.10092" lon="6.54262">
        <ele>448.9</ele>
        <time>2025-02-14T15:00:09Z</time>
      </trkpt>
      <trkpt lat="48.10101" lon="6.54257">
        <ele>448.5</ele>
        <time>2025-02-14T15:00:15Z</time>
      </trkpt>
      <trkpt lat="48.1011" lon="6.54254">
        <ele>449.1</ele>
        <time>2025-02-14T15:00:23Z</time>
      </trkpt>
      <trkpt lat="48.1012" lon="6.5425">
        <ele>449.3</ele>
        <time>2025-02-14T15:00:30Z</time>
      </trkpt>
      <trkpt lat="48.10129" lon="6.54246">
        <ele>449.3</ele>
        <time>2025-02-14T15:00:40Z</time>
      </trkpt>
      <trkpt lat="48.10138" lon="6.54242">
        <ele>449.1</ele>
        <time>2025-02-14T15:00:47Z</time>
      </trkpt>
      <trkpt lat="48.10148" lon="6.5424">
        <ele>449.1</ele>
        <time>2025-02-14T15:00:53Z</time>
      </trkpt>
      <trkpt lat="48.10157" lon="6.5424">
        <ele>449</ele>
        <time>2025-02-14T15:01:01Z</time>
      </trkpt>
      <trkpt lat="48.10167" lon="6.5424">
        <ele>448.5</ele>
        <time>2025-02-14T15:01:07Z</time>
      </trkpt>
      <trkpt lat="48.10177" lon="6.54238">
        <ele>447.9</ele>
        <time>2025-02-14T15:01:14Z</time>
      </trkpt>
      <trkpt lat="48.10185" lon="6.54234">
        <ele>446.8</ele>
        <time>2025-02-14T15:01:22Z</time>
      </trkpt>
      <trkpt lat="48.10195" lon="6.5423">
        <ele>445.4</ele>
        <time>2025-02-14T15:01:31Z</time>
      </trkpt>
      <trkpt lat="48.10204" lon="6.54226">
        <ele>443.9</ele>
        <time>2025-02-14T15:01:38Z</time>
      </trkpt>
      <trkpt lat="48.10213" lon="6.54221">
        <ele>442.4</ele>
        <time>2025-02-14T15:01:48Z</time>
      </trkpt>
      <trkpt lat="48.10222" lon="6.54213">
        <ele>440.2</ele>
        <time>2025-02-14T15:01:59Z</time>
      </trkpt>
      <trkpt lat="48.1023" lon="6.54208">
        <ele>439</ele>
        <time>2025-02-14T15:02:07Z</time>
      </trkpt>
      <trkpt lat="48.10239" lon="6.54208">
        <ele>438.6</ele>
        <time>2025-02-14T15:02:15Z</time>
      </trkpt>
      <trkpt lat="48.10246" lon="6.54199">
        <ele>436.3</ele>
        <time>2025-02-14T15:02:22Z</time>
      </trkpt>
      <trkpt lat="48.10246" lon="6.54199">
        <ele>436.3</ele>
        <time>2025-02-14T15:02:24Z</time>
      </trkpt>
      <trkpt lat="48.10246" lon="6.54199">
        <ele>436.3</ele>
        <time>2025-02-14T15:02:25Z</time>
      </trkpt>
      <trkpt lat="48.10247" lon="6.54199">
        <ele>436.3</ele>
        <time>2025-02-14T15:02:26Z</time>
      </trkpt>
      <trkpt lat="48.10247" lon="6.54198">
        <ele>436.3</ele>
        <time>2025-02-14T15:02:53Z</time>
      </trkpt>
      <trkpt lat="48.10247" lon="6.54198">
        <ele>436.3</ele>
        <time>2025-02-14T15:02:54Z</time>
      </trkpt>
      <trkpt lat="48.10251" lon="6.54193">
        <ele>434.8</ele>
        <time>2025-02-14T15:03:07Z</time>
      </trkpt>
      <trkpt lat="48.10251" lon="6.54193">
        <ele>434.8</ele>
        <time>2025-02-14T15:03:08Z</time>
      </trkpt>
      <trkpt lat="48.1025" lon="6.54193">
        <ele>433.8</ele>
        <time>2025-02-14T15:03:12Z</time>
      </trkpt>
      <trkpt lat="48.10251" lon="6.54192">
        <ele>433.8</ele>
        <time>2025-02-14T15:03:13Z</time>
      </trkpt>
      <trkpt lat="48.10253" lon="6.54192">
        <ele>433.8</ele>
        <time>2025-02-14T15:03:17Z</time>
      </trkpt>
      <trkpt lat="48.10252" lon="6.54191">
        <ele>433.9</ele>
        <time>2025-02-14T15:03:18Z</time>
      </trkpt>
      <trkpt lat="48.10252" lon="6.54191">
        <ele>433.9</ele>
        <time>2025-02-14T15:03:19Z</time>
      </trkpt>
      <trkpt lat="48.10259" lon="6.54186">
        <ele>432.4</ele>
        <time>2025-02-14T15:04:07Z</time>
      </trkpt>
      <trkpt lat="48.10259" lon="6.54187">
        <ele>432.4</ele>
        <time>2025-02-14T15:04:08Z</time>
      </trkpt>
      <trkpt lat="48.10257" lon="6.54188">
        <ele>432.4</ele>
        <time>2025-02-14T15:04:09Z</time>
      </trkpt>
      <trkpt lat="48.10254" lon="6.54188">
        <ele>432.7</ele>
        <time>2025-02-14T15:04:15Z</time>
      </trkpt>
      <trkpt lat="48.10254" lon="6.54188">
        <ele>432.7</ele>
        <time>2025-02-14T15:04:16Z</time>
      </trkpt>
      <trkpt lat="48.10254" lon="6.54187">
        <ele>432.7</ele>
        <time>2025-02-14T15:04:17Z</time>
      </trkpt>
      <trkpt lat="48.10254" lon="6.54184">
        <ele>431.7</ele>
        <time>2025-02-14T15:04:20Z</time>
      </trkpt>
      <trkpt lat="48.10253" lon="6.54184">
        <ele>432</ele>
        <time>2025-02-14T15:04:21Z</time>
      </trkpt>
      <trkpt lat="48.10252" lon="6.54183">
        <ele>432</ele>
        <time>2025-02-14T15:04:22Z</time>
      </trkpt>
      <trkpt lat="48.1025" lon="6.54183">
        <ele>432.3</ele>
        <time>2025-02-14T15:04:23Z</time>
      </trkpt>
      <trkpt lat="48.10248" lon="6.54173">
        <ele>430.3</ele>
        <time>2025-02-14T15:04:32Z</time>
      </trkpt>
      <trkpt lat="48.10248" lon="6.54173">
        <ele>430.3</ele>
        <time>2025-02-14T15:04:33Z</time>
      </trkpt>
      <trkpt lat="48.10246" lon="6.54175">
        <ele>430.5</ele>
        <time>2025-02-14T15:04:37Z</time>
      </trkpt>
      <trkpt lat="48.10245" lon="6.54173">
        <ele>430.5</ele>
        <time>2025-02-14T15:04:38Z</time>
      </trkpt>
      <trkpt lat="48.10245" lon="6.54173">
        <ele>430.5</ele>
        <time>2025-02-14T15:04:39Z</time>
      </trkpt>
      <trkpt lat="48.1025" lon="6.54179">
        <ele>431.3</ele>
        <time>2025-02-14T15:04:55Z</time>
      </trkpt>
      <trkpt lat="48.1025" lon="6.54179">
        <ele>431.3</ele>
        <time>2025-02-14T15:04:56Z</time>
      </trkpt>
      <trkpt lat="48.1025" lon="6.54179">
        <ele>431.3</ele>
        <time>2025-02-14T15:04:57Z</time>
      </trkpt>
      <trkpt lat="48.1025" lon="6.5418">
        <ele>431.3</ele>
        <time>2025-02-14T15:05:03Z</time>
      </trkpt>
      <trkpt lat="48.1025" lon="6.5418">
        <ele>431.3</ele>
        <time>2025-02-14T15:05:04Z</time>
      </trkpt>
      <trkpt lat="48.1025" lon="6.5418">
        <ele>432.3</ele>
        <time>2025-02-14T15:05:05Z</time>
      </trkpt>
      <trkpt lat="48.10251" lon="6.5418">
        <ele>432.1</ele>
        <time>2025-02-14T15:05:06Z</time>
      </trkpt>
      <trkpt lat="48.10251" lon="6.5418">
        <ele>432.1</ele>
        <time>2025-02-14T15:05:07Z</time>
      </trkpt>
      <trkpt lat="48.10251" lon="6.54181">
        <ele>432.1</ele>
        <time>2025-02-14T15:05:08Z</time>
      </trkpt>
      <trkpt lat="48.10255" lon="6.54183">
        <ele>431.8</ele>
        <time>2025-02-14T15:05:27Z</time>
      </trkpt>
      <trkpt lat="48.10255" lon="6.54184">
        <ele>431.8</ele>
        <time>2025-02-14T15:05:28Z</time>
      </trkpt>
      <trkpt lat="48.10246" lon="6.54182">
        <ele>432.6</ele>
        <time>2025-02-14T15:05:46Z</time>
      </trkpt>
      <trkpt lat="48.10245" lon="6.54168">
        <ele>429.5</ele>
        <time>2025-02-14T15:06:02Z</time>
      </trkpt>
      <trkpt lat="48.10243" lon="6.54155">
        <ele>426.5</ele>
        <time>2025-02-14T15:06:16Z</time>
      </trkpt>
      <trkpt lat="48.10235" lon="6.54148">
        <ele>425</ele>
        <time>2025-02-14T15:06:25Z</time>
      </trkpt>
      <trkpt lat="48.10229" lon="6.54136">
        <ele>422</ele>
        <time>2025-02-14T15:06:35Z</time>
      </trkpt>
      <trkpt lat="48.10223" lon="6.54125">
        <ele>419.9</ele>
        <time>2025-02-14T15:06:42Z</time>
      </trkpt>
      <trkpt lat="48.1022" lon="6.54112">
        <ele>416.4</ele>
        <time>2025-02-14T15:06:52Z</time>
      </trkpt>
      <trkpt lat="48.10215" lon="6.541">
        <ele>413.6</ele>
        <time>2025-02-14T15:06:59Z</time>
      </trkpt>
      <trkpt lat="48.10207" lon="6.54093">
        <ele>412.3</ele>
        <time>2025-02-14T15:07:05Z</time>
      </trkpt>
      <trkpt lat="48.102" lon="6.54082">
        <ele>410.6</ele>
        <time>2025-02-14T15:07:15Z</time>
      </trkpt>
      <trkpt lat="48.10196" lon="6.54069">
        <ele>408.2</ele>
        <time>2025-02-14T15:07:22Z</time>
      </trkpt>
      <trkpt lat="48.1019" lon="6.54058">
        <ele>406</ele>
        <time>2025-02-14T15:07:28Z</time>
      </trkpt>
      <trkpt lat="48.10184" lon="6.54046">
        <ele>404</ele>
        <time>2025-02-14T15:07:43Z</time>
      </trkpt>
      <trkpt lat="48.10184" lon="6.54047">
        <ele>404</ele>
        <time>2025-02-14T15:07:47Z</time>
      </trkpt>
      <trkpt lat="48.10184" lon="6.54047">
        <ele>404</ele>
        <time>2025-02-14T15:07:48Z</time>
      </trkpt>
      <trkpt lat="48.10183" lon="6.54046">
        <ele>403.8</ele>
        <time>2025-02-14T15:08:13Z</time>
      </trkpt>
      <trkpt lat="48.10183" lon="6.54045">
        <ele>403.6</ele>
        <time>2025-02-14T15:08:14Z</time>
      </trkpt>
      <trkpt lat="48.10179" lon="6.54033">
        <ele>402</ele>
        <time>2025-02-14T15:08:23Z</time>
      </trkpt>
      <trkpt lat="48.10174" lon="6.54021">
        <ele>400.4</ele>
        <time>2025-02-14T15:08:29Z</time>
      </trkpt>
      <trkpt lat="48.1017" lon="6.54007">
        <ele>398.9</ele>
        <time>2025-02-14T15:08:39Z</time>
      </trkpt>
      <trkpt lat="48.10169" lon="6.53994">
        <ele>397.6</ele>
        <time>2025-02-14T15:08:47Z</time>
      </trkpt>
      <trkpt lat="48.10169" lon="6.53979">
        <ele>396.1</ele>
        <time>2025-02-14T15:08:56Z</time>
      </trkpt>
      <trkpt lat="48.1017" lon="6.53965">
        <ele>394.7</ele>
        <time>2025-02-14T15:09:04Z</time>
      </trkpt>
      <trkpt lat="48.1017" lon="6.5395">
        <ele>393.1</ele>
        <time>2025-02-14T15:09:14Z</time>
      </trkpt>
      <trkpt lat="48.10172" lon="6.53936">
        <ele>391.6</ele>
        <time>2025-02-14T15:09:23Z</time>
      </trkpt>
      <trkpt lat="48.10173" lon="6.53921">
        <ele>390.2</ele>
        <time>2025-02-14T15:09:33Z</time>
      </trkpt>
      <trkpt lat="48.10175" lon="6.53907">
        <ele>388.6</ele>
        <time>2025-02-14T15:09:42Z</time>
      </trkpt>
      <trkpt lat="48.10175" lon="6.53892">
        <ele>387</ele>
        <time>2025-02-14T15:09:51Z</time>
      </trkpt>
      <trkpt lat="48.10176" lon="6.53878">
        <ele>385.4</ele>
        <time>2025-02-14T15:09:59Z</time>
      </trkpt>
      <trkpt lat="48.10176" lon="6.53864">
        <ele>383.6</ele>
        <time>2025-02-14T15:10:07Z</time>
      </trkpt>
      <trkpt lat="48.10177" lon="6.53854">
        <ele>382.3</ele>
        <time>2025-02-14T15:10:17Z</time>
      </trkpt>
      <trkpt lat="48.10177" lon="6.53854">
        <ele>382.3</ele>
        <time>2025-02-14T15:10:18Z</time>
      </trkpt>
      <trkpt lat="48.10177" lon="6.53853">
        <ele>382</ele>
        <time>2025-02-14T15:10:28Z</time>
      </trkpt>
      <trkpt lat="48.10178" lon="6.53852">
        <ele>381.8</ele>
        <time>2025-02-14T15:10:29Z</time>
      </trkpt>
      <trkpt lat="48.10186" lon="6.53844">
        <ele>381</ele>
        <time>2025-02-14T15:10:37Z</time>
      </trkpt>
      <trkpt lat="48.10195" lon="6.53836">
        <ele>380.1</ele>
        <time>2025-02-14T15:10:46Z</time>
      </trkpt>
      <trkpt lat="48.10203" lon="6.53831">
        <ele>379.4</ele>
        <time>2025-02-14T15:10:54Z</time>
      </trkpt>
      <trkpt lat="48.10212" lon="6.53826">
        <ele>378.9</ele>
        <time>2025-02-14T15:11:03Z</time>
      </trkpt>
      <trkpt lat="48.1022" lon="6.53819">
        <ele>378.5</ele>
        <time>2025-02-14T15:11:12Z</time>
      </trkpt>
      <trkpt lat="48.10227" lon="6.53809">
        <ele>378</ele>
        <time>2025-02-14T15:11:23Z</time>
      </trkpt>
      <trkpt lat="48.10236" lon="6.53804">
        <ele>377.6</ele>
        <time>2025-02-14T15:11:30Z</time>
      </trkpt>
      <trkpt lat="48.10245" lon="6.53806">
        <ele>377.8</ele>
        <time>2025-02-14T15:11:37Z</time>
      </trkpt>
      <trkpt lat="48.10255" lon="6.53806">
        <ele>377.8</ele>
        <time>2025-02-14T15:11:46Z</time>
      </trkpt>
      <trkpt lat="48.10265" lon="6.53803">
        <ele>377.8</ele>
        <time>2025-02-14T15:11:55Z</time>
      </trkpt>
      <trkpt lat="48.10274" lon="6.53803">
        <ele>377.7</ele>
        <time>2025-02-14T15:12:03Z</time>
      </trkpt>
      <trkpt lat="48.10283" lon="6.53801">
        <ele>377.6</ele>
        <time>2025-02-14T15:12:10Z</time>
      </trkpt>
      <trkpt lat="48.10292" lon="6.53798">
        <ele>377.5</ele>
        <time>2025-02-14T15:12:18Z</time>
      </trkpt>
      <trkpt lat="48.10301" lon="6.53793">
        <ele>377.4</ele>
        <time>2025-02-14T15:12:24Z</time>
      </trkpt>
      <trkpt lat="48.1031" lon="6.53792">
        <ele>377.3</ele>
        <time>2025-02-14T15:12:31Z</time>
      </trkpt>
      <trkpt lat="48.1032" lon="6.53789">
        <ele>377.3</ele>
        <time>2025-02-14T15:12:39Z</time>
      </trkpt>
      <trkpt lat="48.10328" lon="6.53779">
        <ele>377.3</ele>
        <time>2025-02-14T15:12:45Z</time>
      </trkpt>
      <trkpt lat="48.10338" lon="6.53778">
        <ele>377.3</ele>
        <time>2025-02-14T15:12:53Z</time>
      </trkpt>
      <trkpt lat="48.10348" lon="6.53777">
        <ele>377.3</ele>
        <time>2025-02-14T15:13:00Z</time>
      </trkpt>
      <trkpt lat="48.10358" lon="6.53775">
        <ele>377.3</ele>
        <time>2025-02-14T15:13:08Z</time>
      </trkpt>
      <trkpt lat="48.10367" lon="6.53773">
        <ele>377.3</ele>
        <time>2025-02-14T15:13:15Z</time>
      </trkpt>
      <trkpt lat="48.10375" lon="6.53768">
        <ele>377.4</ele>
        <time>2025-02-14T15:13:25Z</time>
      </trkpt>
      <trkpt lat="48.10384" lon="6.53763">
        <ele>377.4</ele>
        <time>2025-02-14T15:13:35Z</time>
      </trkpt>
      <trkpt lat="48.10393" lon="6.53761">
        <ele>377.3</ele>
        <time>2025-02-14T15:13:42Z</time>
      </trkpt>
      <trkpt lat="48.10401" lon="6.53754">
        <ele>377.2</ele>
        <time>2025-02-14T15:13:48Z</time>
      </trkpt>
      <trkpt lat="48.10411" lon="6.53751">
        <ele>377</ele>
        <time>2025-02-14T15:13:54Z</time>
      </trkpt>
      <trkpt lat="48.1042" lon="6.53746">
        <ele>376.8</ele>
        <time>2025-02-14T15:14:03Z</time>
      </trkpt>
      <trkpt lat="48.1043" lon="6.53743">
        <ele>376.6</ele>
        <time>2025-02-14T15:14:13Z</time>
      </trkpt>
      <trkpt lat="48.10439" lon="6.5374">
        <ele>376.4</ele>
        <time>2025-02-14T15:14:22Z</time>
      </trkpt>
      <trkpt lat="48.10441" lon="6.53724">
        <ele>374.6</ele>
        <time>2025-02-14T15:14:32Z</time>
      </trkpt>
      <trkpt lat="48.1044" lon="6.5371">
        <ele>373.4</ele>
        <time>2025-02-14T15:14:40Z</time>
      </trkpt>
      <trkpt lat="48.1044" lon="6.53695">
        <ele>372.3</ele>
        <time>2025-02-14T15:14:47Z</time>
      </trkpt>
      <trkpt lat="48.10439" lon="6.53681">
        <ele>371.3</ele>
        <time>2025-02-14T15:14:54Z</time>
      </trkpt>
      <trkpt lat="48.10437" lon="6.53668">
        <ele>370.5</ele>
        <time>2025-02-14T15:15:01Z</time>
      </trkpt>
      <trkpt lat="48.10436" lon="6.53653">
        <ele>369.8</ele>
        <time>2025-02-14T15:15:10Z</time>
      </trkpt>
      <trkpt lat="48.10434" lon="6.53638">
        <ele>369.2</ele>
        <time>2025-02-14T15:15:17Z</time>
      </trkpt>
      <trkpt lat="48.10436" lon="6.53624">
        <ele>369.1</ele>
        <time>2025-02-14T15:15:25Z</time>
      </trkpt>
      <trkpt lat="48.10441" lon="6.53612">
        <ele>369</ele>
        <time>2025-02-14T15:15:35Z</time>
      </trkpt>
      <trkpt lat="48.1044" lon="6.53613">
        <ele>369</ele>
        <time>2025-02-14T15:15:40Z</time>
      </trkpt>
      <trkpt lat="48.10439" lon="6.53614">
        <ele>369</ele>
        <time>2025-02-14T15:15:41Z</time>
      </trkpt>
      <trkpt lat="48.10437" lon="6.53613">
        <ele>369</ele>
        <time>2025-02-14T15:15:47Z</time>
      </trkpt>
      <trkpt lat="48.10437" lon="6.53613">
        <ele>369</ele>
        <time>2025-02-14T15:15:48Z</time>
      </trkpt>
      <trkpt lat="48.10437" lon="6.53612">
        <ele>369</ele>
        <time>2025-02-14T15:15:49Z</time>
      </trkpt>
      <trkpt lat="48.10437" lon="6.53612">
        <ele>369</ele>
        <time>2025-02-14T15:15:52Z</time>
      </trkpt>
      <trkpt lat="48.10437" lon="6.53612">
        <ele>369</ele>
        <time>2025-02-14T15:15:53Z</time>
      </trkpt>
      <trkpt lat="48.10438" lon="6.53612">
        <ele>369</ele>
        <time>2025-02-14T15:15:54Z</time>
      </trkpt>
      <trkpt lat="48.10434" lon="6.53614">
        <ele>368.9</ele>
        <time>2025-02-14T15:16:10Z</time>
      </trkpt>
      <trkpt lat="48.10433" lon="6.53615">
        <ele>368.9</ele>
        <time>2025-02-14T15:16:11Z</time>
      </trkpt>
      <trkpt lat="48.10431" lon="6.5363">
        <ele>369.1</ele>
        <time>2025-02-14T15:16:17Z</time>
      </trkpt>
      <trkpt lat="48.10432" lon="6.53643">
        <ele>369.4</ele>
        <time>2025-02-14T15:16:25Z</time>
      </trkpt>
      <trkpt lat="48.10436" lon="6.53656">
        <ele>369.9</ele>
        <time>2025-02-14T15:16:33Z</time>
      </trkpt>
      <trkpt lat="48.10435" lon="6.53671">
        <ele>370.7</ele>
        <time>2025-02-14T15:16:41Z</time>
      </trkpt>
      <trkpt lat="48.10438" lon="6.53684">
        <ele>371.6</ele>
        <time>2025-02-14T15:16:49Z</time>
      </trkpt>
      <trkpt lat="48.1044" lon="6.53697">
        <ele>372.6</ele>
        <time>2025-02-14T15:16:58Z</time>
      </trkpt>
      <trkpt lat="48.10442" lon="6.53712">
        <ele>373.7</ele>
        <time>2025-02-14T15:17:05Z</time>
      </trkpt>
      <trkpt lat="48.10444" lon="6.53726">
        <ele>374.8</ele>
        <time>2025-02-14T15:17:14Z</time>
      </trkpt>
      <trkpt lat="48.10445" lon="6.53741">
        <ele>375.9</ele>
        <time>2025-02-14T15:17:24Z</time>
      </trkpt>
      <trkpt lat="48.10438" lon="6.53749">
        <ele>376.4</ele>
        <time>2025-02-14T15:17:32Z</time>
      </trkpt>
      <trkpt lat="48.10429" lon="6.53754">
        <ele>376.6</ele>
        <time>2025-02-14T15:17:40Z</time>
      </trkpt>
      <trkpt lat="48.1042" lon="6.53757">
        <ele>376.8</ele>
        <time>2025-02-14T15:17:50Z</time>
      </trkpt>
      <trkpt lat="48.1041" lon="6.53757">
        <ele>377</ele>
        <time>2025-02-14T15:17:59Z</time>
      </trkpt>
      <trkpt lat="48.10401" lon="6.53762">
        <ele>377.2</ele>
        <time>2025-02-14T15:18:10Z</time>
      </trkpt>
      <trkpt lat="48.10391" lon="6.53766">
        <ele>377.3</ele>
        <time>2025-02-14T15:18:16Z</time>
      </trkpt>
      <trkpt lat="48.10382" lon="6.53768">
        <ele>377.4</ele>
        <time>2025-02-14T15:18:22Z</time>
      </trkpt>
      <trkpt lat="48.10373" lon="6.53771">
        <ele>377.4</ele>
        <time>2025-02-14T15:18:28Z</time>
      </trkpt>
      <trkpt lat="48.10364" lon="6.5377">
        <ele>377.3</ele>
        <time>2025-02-14T15:18:35Z</time>
      </trkpt>
      <trkpt lat="48.10355" lon="6.53768">
        <ele>377.3</ele>
        <time>2025-02-14T15:18:44Z</time>
      </trkpt>
      <trkpt lat="48.10346" lon="6.53775">
        <ele>377.3</ele>
        <time>2025-02-14T15:18:52Z</time>
      </trkpt>
      <trkpt lat="48.10336" lon="6.5378">
        <ele>377.3</ele>
        <time>2025-02-14T15:19:02Z</time>
      </trkpt>
      <trkpt lat="48.10325" lon="6.53779">
        <ele>377.3</ele>
        <time>2025-02-14T15:19:10Z</time>
      </trkpt>
      <trkpt lat="48.10316" lon="6.53783">
        <ele>377.3</ele>
        <time>2025-02-14T15:19:18Z</time>
      </trkpt>
      <trkpt lat="48.10307" lon="6.53789">
        <ele>377.3</ele>
        <time>2025-02-14T15:19:25Z</time>
      </trkpt>
      <trkpt lat="48.10298" lon="6.53793">
        <ele>377.4</ele>
        <time>2025-02-14T15:19:32Z</time>
      </trkpt>
      <trkpt lat="48.1029" lon="6.53801">
        <ele>377.5</ele>
        <time>2025-02-14T15:19:40Z</time>
      </trkpt>
      <trkpt lat="48.1028" lon="6.53805">
        <ele>377.6</ele>
        <time>2025-02-14T15:19:48Z</time>
      </trkpt>
      <trkpt lat="48.10271" lon="6.53805">
        <ele>377.7</ele>
        <time>2025-02-14T15:19:54Z</time>
      </trkpt>
      <trkpt lat="48.10261" lon="6.53804">
        <ele>377.8</ele>
        <time>2025-02-14T15:20:00Z</time>
      </trkpt>
      <trkpt lat="48.10251" lon="6.53806">
        <ele>377.8</ele>
        <time>2025-02-14T15:20:08Z</time>
      </trkpt>
      <trkpt lat="48.10242" lon="6.53803">
        <ele>377.7</ele>
        <time>2025-02-14T15:20:15Z</time>
      </trkpt>
      <trkpt lat="48.10232" lon="6.53802">
        <ele>377.5</ele>
        <time>2025-02-14T15:20:23Z</time>
      </trkpt>
      <trkpt lat="48.10223" lon="6.53798">
        <ele>377.2</ele>
        <time>2025-02-14T15:20:30Z</time>
      </trkpt>
      <trkpt lat="48.10213" lon="6.53794">
        <ele>376.8</ele>
        <time>2025-02-14T15:20:37Z</time>
      </trkpt>
      <trkpt lat="48.10204" lon="6.53796">
        <ele>376.2</ele>
        <time>2025-02-14T15:20:47Z</time>
      </trkpt>
      <trkpt lat="48.10195" lon="6.53798">
        <ele>375.6</ele>
        <time>2025-02-14T15:21:03Z</time>
      </trkpt>
      <trkpt lat="48.10185" lon="6.53795">
        <ele>374.9</ele>
        <time>2025-02-14T15:21:16Z</time>
      </trkpt>
      <trkpt lat="48.10174" lon="6.53794">
        <ele>374.2</ele>
        <time>2025-02-14T15:21:19Z</time>
      </trkpt>
      <trkpt lat="48.10164" lon="6.53791">
        <ele>373.6</ele>
        <time>2025-02-14T15:21:24Z</time>
      </trkpt>
      <trkpt lat="48.10154" lon="6.5379">
        <ele>373.1</ele>
        <time>2025-02-14T15:21:29Z</time>
      </trkpt>
      <trkpt lat="48.10144" lon="6.53783">
        <ele>372.6</ele>
        <time>2025-02-14T15:21:35Z</time>
      </trkpt>
      <trkpt lat="48.10136" lon="6.53774">
        <ele>372.3</ele>
        <time>2025-02-14T15:21:41Z</time>
      </trkpt>
      <trkpt lat="48.10128" lon="6.53767">
        <ele>372.1</ele>
        <time>2025-02-14T15:21:49Z</time>
      </trkpt>
      <trkpt lat="48.10119" lon="6.53763">
        <ele>371.9</ele>
        <time>2025-02-14T15:22:05Z</time>
      </trkpt>
      <trkpt lat="48.10111" lon="6.53756">
        <ele>371.8</ele>
        <time>2025-02-14T15:22:16Z</time>
      </trkpt>
      <trkpt lat="48.10104" lon="6.53744">
        <ele>371.7</ele>
        <time>2025-02-14T15:22:23Z</time>
      </trkpt>
      <trkpt lat="48.10098" lon="6.53732">
        <ele>371.7</ele>
        <time>2025-02-14T15:22:29Z</time>
      </trkpt>
      <trkpt lat="48.10096" lon="6.53717">
        <ele>371.7</ele>
        <time>2025-02-14T15:22:36Z</time>
      </trkpt>
      <trkpt lat="48.10095" lon="6.53703">
        <ele>371.8</ele>
        <time>2025-02-14T15:22:44Z</time>
      </trkpt>
      <trkpt lat="48.1009" lon="6.53691">
        <ele>371.8</ele>
        <time>2025-02-14T15:22:51Z</time>
      </trkpt>
      <trkpt lat="48.10084" lon="6.53679">
        <ele>371.9</ele>
        <time>2025-02-14T15:22:58Z</time>
      </trkpt>
      <trkpt lat="48.10078" lon="6.53666">
        <ele>372</ele>
        <time>2025-02-14T15:23:06Z</time>
      </trkpt>
      <trkpt lat="48.10072" lon="6.53655">
        <ele>372.1</ele>
        <time>2025-02-14T15:23:10Z</time>
      </trkpt>
      <trkpt lat="48.10067" lon="6.53644">
        <ele>372.1</ele>
        <time>2025-02-14T15:23:17Z</time>
      </trkpt>
      <trkpt lat="48.10063" lon="6.53632">
        <ele>372.2</ele>
        <time>2025-02-14T15:23:25Z</time>
      </trkpt>
      <trkpt lat="48.10059" lon="6.53619">
        <ele>372.3</ele>
        <time>2025-02-14T15:23:32Z</time>
      </trkpt>
      <trkpt lat="48.10058" lon="6.53605">
        <ele>372.3</ele>
        <time>2025-02-14T15:23:39Z</time>
      </trkpt>
      <trkpt lat="48.10053" lon="6.53593">
        <ele>372.4</ele>
        <time>2025-02-14T15:23:48Z</time>
      </trkpt>
      <trkpt lat="48.10053" lon="6.53579">
        <ele>372.4</ele>
        <time>2025-02-14T15:23:57Z</time>
      </trkpt>
      <trkpt lat="48.10048" lon="6.53565">
        <ele>372.4</ele>
        <time>2025-02-14T15:24:07Z</time>
      </trkpt>
      <trkpt lat="48.10041" lon="6.53557">
        <ele>372.5</ele>
        <time>2025-02-14T15:24:13Z</time>
      </trkpt>
      <trkpt lat="48.10037" lon="6.53541">
        <ele>372.6</ele>
        <time>2025-02-14T15:24:17Z</time>
      </trkpt>
      <trkpt lat="48.10031" lon="6.53531">
        <ele>372.6</ele>
        <time>2025-02-14T15:24:23Z</time>
      </trkpt>
      <trkpt lat="48.10025" lon="6.5352">
        <ele>372.7</ele>
        <time>2025-02-14T15:24:30Z</time>
      </trkpt>
      <trkpt lat="48.1002" lon="6.53516">
        <ele>372.8</ele>
        <time>2025-02-14T15:24:43Z</time>
      </trkpt>
      <trkpt lat="48.1002" lon="6.53516">
        <ele>372.8</ele>
        <time>2025-02-14T15:24:44Z</time>
      </trkpt>
      <trkpt lat="48.1002" lon="6.53516">
        <ele>372.8</ele>
        <time>2025-02-14T15:24:45Z</time>
      </trkpt>
      <trkpt lat="48.1002" lon="6.53516">
        <ele>372.8</ele>
        <time>2025-02-14T15:24:46Z</time>
      </trkpt>
      <trkpt lat="48.1002" lon="6.53516">
        <ele>372.8</ele>
        <time>2025-02-14T15:24:47Z</time>
      </trkpt>
      <trkpt lat="48.1002" lon="6.53516">
        <ele>372.8</ele>
        <time>2025-02-14T15:24:48Z</time>
      </trkpt>
      <trkpt lat="48.1002" lon="6.53516">
        <ele>372.8</ele>
        <time>2025-02-14T15:24:49Z</time>
      </trkpt>
      <trkpt lat="48.10018" lon="6.53515">
        <ele>372.8</ele>
        <time>2025-02-14T15:24:52Z</time>
      </trkpt>
      <trkpt lat="48.10017" lon="6.53514">
        <ele>372.8</ele>
        <time>2025-02-14T15:24:53Z</time>
      </trkpt>
      <trkpt lat="48.10016" lon="6.53513">
        <ele>372.8</ele>
        <time>2025-02-14T15:24:54Z</time>
      </trkpt>
      <trkpt lat="48.10011" lon="6.535">
        <ele>372.9</ele>
        <time>2025-02-14T15:25:03Z</time>
      </trkpt>
      <trkpt lat="48.10012" lon="6.53486">
        <ele>372.9</ele>
        <time>2025-02-14T15:25:13Z</time>
      </trkpt>
      <trkpt lat="48.10016" lon="6.53472">
        <ele>372.9</ele>
        <time>2025-02-14T15:25:20Z</time>
      </trkpt>
      <trkpt lat="48.10023" lon="6.5346">
        <ele>372.9</ele>
        <time>2025-02-14T15:25:26Z</time>
      </trkpt>
      <trkpt lat="48.10027" lon="6.53448">
        <ele>373</ele>
        <time>2025-02-14T15:25:33Z</time>
      </trkpt>
      <trkpt lat="48.10029" lon="6.53434">
        <ele>373</ele>
        <time>2025-02-14T15:25:40Z</time>
      </trkpt>
      <trkpt lat="48.10031" lon="6.53421">
        <ele>373.1</ele>
        <time>2025-02-14T15:25:47Z</time>
      </trkpt>
      <trkpt lat="48.10035" lon="6.53408">
        <ele>373.2</ele>
        <time>2025-02-14T15:25:55Z</time>
      </trkpt>
      <trkpt lat="48.1004" lon="6.53396">
        <ele>373.2</ele>
        <time>2025-02-14T15:26:03Z</time>
      </trkpt>
      <trkpt lat="48.10049" lon="6.53389">
        <ele>373.2</ele>
        <time>2025-02-14T15:26:12Z</time>
      </trkpt>
      <trkpt lat="48.10054" lon="6.53376">
        <ele>373.2</ele>
        <time>2025-02-14T15:26:24Z</time>
      </trkpt>
      <trkpt lat="48.10049" lon="6.53366">
        <ele>373.2</ele>
        <time>2025-02-14T15:26:31Z</time>
      </trkpt>
      <trkpt lat="48.10042" lon="6.53357">
        <ele>373.2</ele>
        <time>2025-02-14T15:26:38Z</time>
      </trkpt>
      <trkpt lat="48.10034" lon="6.5335">
        <ele>373.3</ele>
        <time>2025-02-14T15:26:47Z</time>
      </trkpt>
      <trkpt lat="48.10038" lon="6.53336">
        <ele>373.3</ele>
        <time>2025-02-14T15:26:59Z</time>
      </trkpt>
      <trkpt lat="48.10039" lon="6.53321">
        <ele>373.4</ele>
        <time>2025-02-14T15:27:07Z</time>
      </trkpt>
      <trkpt lat="48.1004" lon="6.53307">
        <ele>373.5</ele>
        <time>2025-02-14T15:27:15Z</time>
      </trkpt>
      <trkpt lat="48.10041" lon="6.53292">
        <ele>373.5</ele>
        <time>2025-02-14T15:27:23Z</time>
      </trkpt>
      <trkpt lat="48.10044" lon="6.53278">
        <ele>373.6</ele>
        <time>2025-02-14T15:27:31Z</time>
      </trkpt>
      <trkpt lat="48.10042" lon="6.53264">
        <ele>373.7</ele>
        <time>2025-02-14T15:27:38Z</time>
      </trkpt>
      <trkpt lat="48.10041" lon="6.53279">
        <ele>373.8</ele>
        <time>2025-02-14T15:27:57Z</time>
      </trkpt>
      <trkpt lat="48.10039" lon="6.53293">
        <ele>373.9</ele>
        <time>2025-02-14T15:28:04Z</time>
      </trkpt>
      <trkpt lat="48.10038" lon="6.53308">
        <ele>373.7</ele>
        <time>2025-02-14T15:28:11Z</time>
      </trkpt>
      <trkpt lat="48.10031" lon="6.53318">
        <ele>373.5</ele>
        <time>2025-02-14T15:28:18Z</time>
      </trkpt>
      <trkpt lat="48.10033" lon="6.53332">
        <ele>373.4</ele>
        <time>2025-02-14T15:28:25Z</time>
      </trkpt>
      <trkpt lat="48.10033" lon="6.53347">
        <ele>373.3</ele>
        <time>2025-02-14T15:28:33Z</time>
      </trkpt>
      <trkpt lat="48.10037" lon="6.53359">
        <ele>373.2</ele>
        <time>2025-02-14T15:28:48Z</time>
      </trkpt>
      <trkpt lat="48.1004" lon="6.53373">
        <ele>373.2</ele>
        <time>2025-02-14T15:28:57Z</time>
      </trkpt>
      <trkpt lat="48.10037" lon="6.53386">
        <ele>373.2</ele>
        <time>2025-02-14T15:29:06Z</time>
      </trkpt>
      <trkpt lat="48.10031" lon="6.53399">
        <ele>373.2</ele>
        <time>2025-02-14T15:29:14Z</time>
      </trkpt>
      <trkpt lat="48.10028" lon="6.53415">
        <ele>373.1</ele>
        <time>2025-02-14T15:29:20Z</time>
      </trkpt>
      <trkpt lat="48.10025" lon="6.53429">
        <ele>373</ele>
        <time>2025-02-14T15:29:27Z</time>
      </trkpt>
      <trkpt lat="48.10021" lon="6.53442">
        <ele>373</ele>
        <time>2025-02-14T15:29:34Z</time>
      </trkpt>
      <trkpt lat="48.10017" lon="6.53455">
        <ele>372.9</ele>
        <time>2025-02-14T15:29:40Z</time>
      </trkpt>
      <trkpt lat="48.10014" lon="6.53469">
        <ele>372.9</ele>
        <time>2025-02-14T15:29:47Z</time>
      </trkpt>
      <trkpt lat="48.10013" lon="6.53483">
        <ele>372.9</ele>
        <time>2025-02-14T15:29:55Z</time>
      </trkpt>
      <trkpt lat="48.1001" lon="6.53496">
        <ele>372.9</ele>
        <time>2025-02-14T15:30:00Z</time>
      </trkpt>
      <trkpt lat="48.10007" lon="6.5351">
        <ele>373.1</ele>
        <time>2025-02-14T15:30:07Z</time>
      </trkpt>
      <trkpt lat="48.10004" lon="6.53524">
        <ele>373.3</ele>
        <time>2025-02-14T15:30:20Z</time>
      </trkpt>
      <trkpt lat="48.09999" lon="6.53535">
        <ele>373.5</ele>
        <time>2025-02-14T15:30:27Z</time>
      </trkpt>
      <trkpt lat="48.09995" lon="6.53547">
        <ele>373.5</ele>
        <time>2025-02-14T15:30:36Z</time>
      </trkpt>
      <trkpt lat="48.09989" lon="6.53558">
        <ele>373.6</ele>
        <time>2025-02-14T15:30:42Z</time>
      </trkpt>
      <trkpt lat="48.09981" lon="6.53568">
        <ele>373.7</ele>
        <time>2025-02-14T15:30:49Z</time>
      </trkpt>
      <trkpt lat="48.09973" lon="6.53577">
        <ele>373.7</ele>
        <time>2025-02-14T15:30:55Z</time>
      </trkpt>
      <trkpt lat="48.09965" lon="6.53586">
        <ele>373.8</ele>
        <time>2025-02-14T15:31:04Z</time>
      </trkpt>
      <trkpt lat="48.09956" lon="6.53592">
        <ele>373.9</ele>
        <time>2025-02-14T15:31:11Z</time>
      </trkpt>
      <trkpt lat="48.09946" lon="6.53596">
        <ele>373.9</ele>
        <time>2025-02-14T15:31:22Z</time>
      </trkpt>
      <trkpt lat="48.09939" lon="6.53603">
        <ele>374</ele>
        <time>2025-02-14T15:31:29Z</time>
      </trkpt>
      <trkpt lat="48.0993" lon="6.53605">
        <ele>374.1</ele>
        <time>2025-02-14T15:31:35Z</time>
      </trkpt>
      <trkpt lat="48.09921" lon="6.5361">
        <ele>374.1</ele>
        <time>2025-02-14T15:31:41Z</time>
      </trkpt>
      <trkpt lat="48.09911" lon="6.53613">
        <ele>374.2</ele>
        <time>2025-02-14T15:31:49Z</time>
      </trkpt>
      <trkpt lat="48.09902" lon="6.53615">
        <ele>374.3</ele>
        <time>2025-02-14T15:31:57Z</time>
      </trkpt>
      <trkpt lat="48.099" lon="6.53616">
        <ele>374.3</ele>
        <time>2025-02-14T15:31:59Z</time>
      </trkpt>
      <trkpt lat="48.099" lon="6.53617">
        <ele>374.3</ele>
        <time>2025-02-14T15:32:00Z</time>
      </trkpt>
      <trkpt lat="48.099" lon="6.53618">
        <ele>374.4</ele>
        <time>2025-02-14T15:32:01Z</time>
      </trkpt>
      <trkpt lat="48.09899" lon="6.53619">
        <ele>374.4</ele>
        <time>2025-02-14T15:32:02Z</time>
      </trkpt>
      <trkpt lat="48.09897" lon="6.53619">
        <ele>374.4</ele>
        <time>2025-02-14T15:32:03Z</time>
      </trkpt>
      <trkpt lat="48.09888" lon="6.53625">
        <ele>374.7</ele>
        <time>2025-02-14T15:32:11Z</time>
      </trkpt>
      <trkpt lat="48.09878" lon="6.53629">
        <ele>375.1</ele>
        <time>2025-02-14T15:32:20Z</time>
      </trkpt>
      <trkpt lat="48.09869" lon="6.53628">
        <ele>375.7</ele>
        <time>2025-02-14T15:32:27Z</time>
      </trkpt>
      <trkpt lat="48.0986" lon="6.53627">
        <ele>376.4</ele>
        <time>2025-02-14T15:32:33Z</time>
      </trkpt>
      <trkpt lat="48.09851" lon="6.53627">
        <ele>377</ele>
        <time>2025-02-14T15:32:39Z</time>
      </trkpt>
      <trkpt lat="48.09841" lon="6.53625">
        <ele>377.7</ele>
        <time>2025-02-14T15:32:46Z</time>
      </trkpt>
      <trkpt lat="48.09832" lon="6.53625">
        <ele>378.3</ele>
        <time>2025-02-14T15:32:52Z</time>
      </trkpt>
      <trkpt lat="48.09823" lon="6.5363">
        <ele>378.9</ele>
        <time>2025-02-14T15:32:59Z</time>
      </trkpt>
      <trkpt lat="48.09815" lon="6.53635">
        <ele>379.4</ele>
        <time>2025-02-14T15:33:06Z</time>
      </trkpt>
      <trkpt lat="48.09805" lon="6.53633">
        <ele>379.8</ele>
        <time>2025-02-14T15:33:13Z</time>
      </trkpt>
      <trkpt lat="48.09797" lon="6.53638">
        <ele>380.3</ele>
        <time>2025-02-14T15:33:19Z</time>
      </trkpt>
      <trkpt lat="48.09788" lon="6.53645">
        <ele>380.8</ele>
        <time>2025-02-14T15:33:27Z</time>
      </trkpt>
      <trkpt lat="48.09779" lon="6.53648">
        <ele>381.2</ele>
        <time>2025-02-14T15:33:34Z</time>
      </trkpt>
      <trkpt lat="48.09769" lon="6.53645">
        <ele>381.7</ele>
        <time>2025-02-14T15:33:40Z</time>
      </trkpt>
      <trkpt lat="48.0976" lon="6.53647">
        <ele>382.2</ele>
        <time>2025-02-14T15:33:47Z</time>
      </trkpt>
      <trkpt lat="48.09751" lon="6.53645">
        <ele>382.6</ele>
        <time>2025-02-14T15:33:53Z</time>
      </trkpt>
      <trkpt lat="48.09741" lon="6.53649">
        <ele>383</ele>
        <time>2025-02-14T15:33:59Z</time>
      </trkpt>
      <trkpt lat="48.09732" lon="6.53643">
        <ele>383.3</ele>
        <time>2025-02-14T15:34:05Z</time>
      </trkpt>
      <trkpt lat="48.09722" lon="6.53642">
        <ele>383.7</ele>
        <time>2025-02-14T15:34:12Z</time>
      </trkpt>
      <trkpt lat="48.09713" lon="6.53644">
        <ele>384</ele>
        <time>2025-02-14T15:34:19Z</time>
      </trkpt>
      <trkpt lat="48.09704" lon="6.53644">
        <ele>384.3</ele>
        <time>2025-02-14T15:34:26Z</time>
      </trkpt>
      <trkpt lat="48.09694" lon="6.53648">
        <ele>384.6</ele>
        <time>2025-02-14T15:34:35Z</time>
      </trkpt>
      <trkpt lat="48.09685" lon="6.53648">
        <ele>384.8</ele>
        <time>2025-02-14T15:34:43Z</time>
      </trkpt>
      <trkpt lat="48.09676" lon="6.53648">
        <ele>384.8</ele>
        <time>2025-02-14T15:34:50Z</time>
      </trkpt>
      <trkpt lat="48.09666" lon="6.53646">
        <ele>384.6</ele>
        <time>2025-02-14T15:34:58Z</time>
      </trkpt>
      <trkpt lat="48.09657" lon="6.53648">
        <ele>384.4</ele>
        <time>2025-02-14T15:35:06Z</time>
      </trkpt>
      <trkpt lat="48.09648" lon="6.53645">
        <ele>384.1</ele>
        <time>2025-02-14T15:35:13Z</time>
      </trkpt>
      <trkpt lat="48.09638" lon="6.53643">
        <ele>383.7</ele>
        <time>2025-02-14T15:35:21Z</time>
      </trkpt>
      <trkpt lat="48.09629" lon="6.53639">
        <ele>384.3</ele>
        <time>2025-02-14T15:35:29Z</time>
      </trkpt>
      <trkpt lat="48.09628" lon="6.53639">
        <ele>384.3</ele>
        <time>2025-02-14T15:35:32Z</time>
      </trkpt>
      <trkpt lat="48.09628" lon="6.53639">
        <ele>384.3</ele>
        <time>2025-02-14T15:35:33Z</time>
      </trkpt>
      <trkpt lat="48.09628" lon="6.53639">
        <ele>384.3</ele>
        <time>2025-02-14T15:35:34Z</time>
      </trkpt>
      <trkpt lat="48.09627" lon="6.53642">
        <ele>384.5</ele>
        <time>2025-02-14T15:35:47Z</time>
      </trkpt>
      <trkpt lat="48.09626" lon="6.53642">
        <ele>384.5</ele>
        <time>2025-02-14T15:35:48Z</time>
      </trkpt>
      <trkpt lat="48.09626" lon="6.53643">
        <ele>384.6</ele>
        <time>2025-02-14T15:35:49Z</time>
      </trkpt>
      <trkpt lat="48.09619" lon="6.53653">
        <ele>385.5</ele>
        <time>2025-02-14T15:35:58Z</time>
      </trkpt>
      <trkpt lat="48.09611" lon="6.53662">
        <ele>386.8</ele>
        <time>2025-02-14T15:36:09Z</time>
      </trkpt>
      <trkpt lat="48.09604" lon="6.53671">
        <ele>388.1</ele>
        <time>2025-02-14T15:36:16Z</time>
      </trkpt>
      <trkpt lat="48.09596" lon="6.53679">
        <ele>389.5</ele>
        <time>2025-02-14T15:36:23Z</time>
      </trkpt>
      <trkpt lat="48.09587" lon="6.5368">
        <ele>390.9</ele>
        <time>2025-02-14T15:36:31Z</time>
      </trkpt>
      <trkpt lat="48.09575" lon="6.5368">
        <ele>392.6</ele>
        <time>2025-02-14T15:36:38Z</time>
      </trkpt>
      <trkpt lat="48.09565" lon="6.53681">
        <ele>393.9</ele>
        <time>2025-02-14T15:36:43Z</time>
      </trkpt>
      <trkpt lat="48.09556" lon="6.5368">
        <ele>395.3</ele>
        <time>2025-02-14T15:36:49Z</time>
      </trkpt>
      <trkpt lat="48.09547" lon="6.53674">
        <ele>396.6</ele>
        <time>2025-02-14T15:36:55Z</time>
      </trkpt>
      <trkpt lat="48.09537" lon="6.5367">
        <ele>397.8</ele>
        <time>2025-02-14T15:37:03Z</time>
      </trkpt>
      <trkpt lat="48.09528" lon="6.53667">
        <ele>398.9</ele>
        <time>2025-02-14T15:37:12Z</time>
      </trkpt>
      <trkpt lat="48.09519" lon="6.53663">
        <ele>399.8</ele>
        <time>2025-02-14T15:37:22Z</time>
      </trkpt>
      <trkpt lat="48.0951" lon="6.53667">
        <ele>400.6</ele>
        <time>2025-02-14T15:37:30Z</time>
      </trkpt>
      <trkpt lat="48.09502" lon="6.53661">
        <ele>401.5</ele>
        <time>2025-02-14T15:37:35Z</time>
      </trkpt>
      <trkpt lat="48.09492" lon="6.53656">
        <ele>402.5</ele>
        <time>2025-02-14T15:37:42Z</time>
      </trkpt>
      <trkpt lat="48.09482" lon="6.53654">
        <ele>403.6</ele>
        <time>2025-02-14T15:37:49Z</time>
      </trkpt>
      <trkpt lat="48.09473" lon="6.53651">
        <ele>404.8</ele>
        <time>2025-02-14T15:37:56Z</time>
      </trkpt>
      <trkpt lat="48.09465" lon="6.53645">
        <ele>406</ele>
        <time>2025-02-14T15:38:02Z</time>
      </trkpt>
      <trkpt lat="48.09456" lon="6.53641">
        <ele>407.1</ele>
        <time>2025-02-14T15:38:08Z</time>
      </trkpt>
      <trkpt lat="48.09447" lon="6.53636">
        <ele>408.3</ele>
        <time>2025-02-14T15:38:15Z</time>
      </trkpt>
      <trkpt lat="48.09438" lon="6.53635">
        <ele>409.3</ele>
        <time>2025-02-14T15:38:22Z</time>
      </trkpt>
      <trkpt lat="48.09431" lon="6.53645">
        <ele>410.3</ele>
        <time>2025-02-14T15:38:31Z</time>
      </trkpt>
      <trkpt lat="48.09421" lon="6.5365">
        <ele>411.5</ele>
        <time>2025-02-14T15:38:39Z</time>
      </trkpt>
      <trkpt lat="48.09412" lon="6.53649">
        <ele>412.6</ele>
        <time>2025-02-14T15:38:46Z</time>
      </trkpt>
      <trkpt lat="48.09405" lon="6.53659">
        <ele>413.9</ele>
        <time>2025-02-14T15:38:56Z</time>
      </trkpt>
      <trkpt lat="48.09396" lon="6.53667">
        <ele>415.3</ele>
        <time>2025-02-14T15:39:04Z</time>
      </trkpt>
      <trkpt lat="48.09388" lon="6.53674">
        <ele>416.8</ele>
        <time>2025-02-14T15:39:12Z</time>
      </trkpt>
      <trkpt lat="48.09378" lon="6.53681">
        <ele>418.3</ele>
        <time>2025-02-14T15:39:19Z</time>
      </trkpt>
      <trkpt lat="48.09374" lon="6.53694">
        <ele>419.7</ele>
        <time>2025-02-14T15:39:26Z</time>
      </trkpt>
      <trkpt lat="48.09368" lon="6.53705">
        <ele>421</ele>
        <time>2025-02-14T15:39:35Z</time>
      </trkpt>
      <trkpt lat="48.09367" lon="6.5372">
        <ele>422.5</ele>
        <time>2025-02-14T15:39:43Z</time>
      </trkpt>
      <trkpt lat="48.09366" lon="6.53734">
        <ele>424.1</ele>
        <time>2025-02-14T15:39:51Z</time>
      </trkpt>
      <trkpt lat="48.09365" lon="6.53742">
        <ele>424.8</ele>
        <time>2025-02-14T15:40:02Z</time>
      </trkpt>
      <trkpt lat="48.09365" lon="6.53742">
        <ele>424.8</ele>
        <time>2025-02-14T15:40:03Z</time>
      </trkpt>
      <trkpt lat="48.09365" lon="6.53742">
        <ele>424.8</ele>
        <time>2025-02-14T15:40:04Z</time>
      </trkpt>
      <trkpt lat="48.09364" lon="6.5374">
        <ele>425.1</ele>
        <time>2025-02-14T15:40:10Z</time>
      </trkpt>
      <trkpt lat="48.09363" lon="6.53742">
        <ele>425.3</ele>
        <time>2025-02-14T15:40:11Z</time>
      </trkpt>
      <trkpt lat="48.09362" lon="6.53742">
        <ele>425.3</ele>
        <time>2025-02-14T15:40:12Z</time>
      </trkpt>
      <trkpt lat="48.09356" lon="6.53753">
        <ele>426.8</ele>
        <time>2025-02-14T15:40:25Z</time>
      </trkpt>
      <trkpt lat="48.09355" lon="6.53755">
        <ele>427.1</ele>
        <time>2025-02-14T15:40:28Z</time>
      </trkpt>
      <trkpt lat="48.09355" lon="6.53755">
        <ele>427.1</ele>
        <time>2025-02-14T15:40:29Z</time>
      </trkpt>
      <trkpt lat="48.09353" lon="6.53755">
        <ele>427.4</ele>
        <time>2025-02-14T15:41:18Z</time>
      </trkpt>
      <trkpt lat="48.09353" lon="6.53755">
        <ele>427.4</ele>
        <time>2025-02-14T15:41:19Z</time>
      </trkpt>
      <trkpt lat="48.09352" lon="6.53756">
        <ele>427.5</ele>
        <time>2025-02-14T15:41:20Z</time>
      </trkpt>
      <trkpt lat="48.09353" lon="6.53754">
        <ele>427.8</ele>
        <time>2025-02-14T15:41:25Z</time>
      </trkpt>
      <trkpt lat="48.09353" lon="6.53754">
        <ele>427.8</ele>
        <time>2025-02-14T15:41:26Z</time>
      </trkpt>
      <trkpt lat="48.09355" lon="6.53755">
        <ele>428.2</ele>
        <time>2025-02-14T15:42:37Z</time>
      </trkpt>
      <trkpt lat="48.09355" lon="6.53755">
        <ele>428.2</ele>
        <time>2025-02-14T15:42:38Z</time>
      </trkpt>
      <trkpt lat="48.09353" lon="6.53741">
        <ele>429.7</ele>
        <time>2025-02-14T15:42:50Z</time>
      </trkpt>
      <trkpt lat="48.09344" lon="6.53742">
        <ele>429.1</ele>
        <time>2025-02-14T15:42:59Z</time>
      </trkpt>
      <trkpt lat="48.09334" lon="6.53743">
        <ele>428.4</ele>
        <time>2025-02-14T15:43:09Z</time>
      </trkpt>
      <trkpt lat="48.09324" lon="6.53743">
        <ele>427.6</ele>
        <time>2025-02-14T15:43:15Z</time>
      </trkpt>
      <trkpt lat="48.09314" lon="6.53744">
        <ele>427</ele>
        <time>2025-02-14T15:43:20Z</time>
      </trkpt>
      <trkpt lat="48.09305" lon="6.53749">
        <ele>426.3</ele>
        <time>2025-02-14T15:43:29Z</time>
      </trkpt>
      <trkpt lat="48.09296" lon="6.53749">
        <ele>425.6</ele>
        <time>2025-02-14T15:43:35Z</time>
      </trkpt>
      <trkpt lat="48.09285" lon="6.53752">
        <ele>424.9</ele>
        <time>2025-02-14T15:43:42Z</time>
      </trkpt>
      <trkpt lat="48.09276" lon="6.53754">
        <ele>424.2</ele>
        <time>2025-02-14T15:43:50Z</time>
      </trkpt>
      <trkpt lat="48.09267" lon="6.53758">
        <ele>423.5</ele>
        <time>2025-02-14T15:43:57Z</time>
      </trkpt>
      <trkpt lat="48.09257" lon="6.53763">
        <ele>422.8</ele>
        <time>2025-02-14T15:44:03Z</time>
      </trkpt>
      <trkpt lat="48.09248" lon="6.53767">
        <ele>422.1</ele>
        <time>2025-02-14T15:44:10Z</time>
      </trkpt>
      <trkpt lat="48.09243" lon="6.53779">
        <ele>421.4</ele>
        <time>2025-02-14T15:44:18Z</time>
      </trkpt>
      <trkpt lat="48.09247" lon="6.53793">
        <ele>420.8</ele>
        <time>2025-02-14T15:44:25Z</time>
      </trkpt>
      <trkpt lat="48.09253" lon="6.53801">
        <ele>420.2</ele>
        <time>2025-02-14T15:44:37Z</time>
      </trkpt>
      <trkpt lat="48.09252" lon="6.53801">
        <ele>420.1</ele>
        <time>2025-02-14T15:44:38Z</time>
      </trkpt>
      <trkpt lat="48.09252" lon="6.538">
        <ele>420.1</ele>
        <time>2025-02-14T15:44:39Z</time>
      </trkpt>
      <trkpt lat="48.0925" lon="6.53799">
        <ele>420</ele>
        <time>2025-02-14T15:44:43Z</time>
      </trkpt>
      <trkpt lat="48.0925" lon="6.53798">
        <ele>419.9</ele>
        <time>2025-02-14T15:44:44Z</time>
      </trkpt>
      <trkpt lat="48.09241" lon="6.53792">
        <ele>419.2</ele>
        <time>2025-02-14T15:45:01Z</time>
      </trkpt>
      <trkpt lat="48.09232" lon="6.53797">
        <ele>418.5</ele>
        <time>2025-02-14T15:45:07Z</time>
      </trkpt>
      <trkpt lat="48.09224" lon="6.53803">
        <ele>417.9</ele>
        <time>2025-02-14T15:45:14Z</time>
      </trkpt>
      <trkpt lat="48.09215" lon="6.5381">
        <ele>417.1</ele>
        <time>2025-02-14T15:45:20Z</time>
      </trkpt>
      <trkpt lat="48.09207" lon="6.5382">
        <ele>416.3</ele>
        <time>2025-02-14T15:45:29Z</time>
      </trkpt>
      <trkpt lat="48.09198" lon="6.53826">
        <ele>415.6</ele>
        <time>2025-02-14T15:45:39Z</time>
      </trkpt>
      <trkpt lat="48.09192" lon="6.53836">
        <ele>415</ele>
        <time>2025-02-14T15:45:47Z</time>
      </trkpt>
      <trkpt lat="48.09185" lon="6.53845">
        <ele>414.3</ele>
        <time>2025-02-14T15:45:54Z</time>
      </trkpt>
      <trkpt lat="48.09176" lon="6.5385">
        <ele>413.7</ele>
        <time>2025-02-14T15:46:01Z</time>
      </trkpt>
      <trkpt lat="48.09168" lon="6.53854">
        <ele>413.1</ele>
        <time>2025-02-14T15:46:08Z</time>
      </trkpt>
      <trkpt lat="48.09159" lon="6.53862">
        <ele>412.5</ele>
        <time>2025-02-14T15:46:15Z</time>
      </trkpt>
      <trkpt lat="48.09151" lon="6.53868">
        <ele>411.8</ele>
        <time>2025-02-14T15:46:21Z</time>
      </trkpt>
      <trkpt lat="48.09144" lon="6.53877">
        <ele>411.2</ele>
        <time>2025-02-14T15:46:26Z</time>
      </trkpt>
      <trkpt lat="48.09135" lon="6.53884">
        <ele>410.6</ele>
        <time>2025-02-14T15:46:36Z</time>
      </trkpt>
      <trkpt lat="48.09128" lon="6.53892">
        <ele>409.9</ele>
        <time>2025-02-14T15:46:41Z</time>
      </trkpt>
      <trkpt lat="48.0912" lon="6.53901">
        <ele>409.2</ele>
        <time>2025-02-14T15:46:48Z</time>
      </trkpt>
      <trkpt lat="48.09111" lon="6.53908">
        <ele>408.6</ele>
        <time>2025-02-14T15:46:56Z</time>
      </trkpt>
      <trkpt lat="48.09102" lon="6.53909">
        <ele>408</ele>
        <time>2025-02-14T15:47:03Z</time>
      </trkpt>
      <trkpt lat="48.09093" lon="6.53915">
        <ele>407.4</ele>
        <time>2025-02-14T15:47:10Z</time>
      </trkpt>
      <trkpt lat="48.09085" lon="6.53922">
        <ele>406.9</ele>
        <time>2025-02-14T15:47:17Z</time>
      </trkpt>
      <trkpt lat="48.09079" lon="6.53934">
        <ele>406.4</ele>
        <time>2025-02-14T15:47:26Z</time>
      </trkpt>
      <trkpt lat="48.09071" lon="6.53942">
        <ele>405.9</ele>
        <time>2025-02-14T15:47:33Z</time>
      </trkpt>
      <trkpt lat="48.09064" lon="6.53952">
        <ele>405.5</ele>
        <time>2025-02-14T15:47:42Z</time>
      </trkpt>
      <trkpt lat="48.09054" lon="6.53952">
        <ele>404.9</ele>
        <time>2025-02-14T15:47:50Z</time>
      </trkpt>
      <trkpt lat="48.09048" lon="6.53945">
        <ele>403.7</ele>
        <time>2025-02-14T15:48:05Z</time>
      </trkpt>
      <trkpt lat="48.09048" lon="6.53945">
        <ele>403.7</ele>
        <time>2025-02-14T15:48:06Z</time>
      </trkpt>
      <trkpt lat="48.09048" lon="6.53946">
        <ele>403.7</ele>
        <time>2025-02-14T15:48:07Z</time>
      </trkpt>
      <trkpt lat="48.09048" lon="6.53945">
        <ele>403.6</ele>
        <time>2025-02-14T15:48:13Z</time>
      </trkpt>
      <trkpt lat="48.09047" lon="6.53945">
        <ele>403.6</ele>
        <time>2025-02-14T15:48:14Z</time>
      </trkpt>
      <trkpt lat="48.09039" lon="6.53952">
        <ele>402.8</ele>
        <time>2025-02-14T15:48:22Z</time>
      </trkpt>
      <trkpt lat="48.09032" lon="6.53962">
        <ele>402.3</ele>
        <time>2025-02-14T15:48:30Z</time>
      </trkpt>
      <trkpt lat="48.09023" lon="6.53968">
        <ele>402</ele>
        <time>2025-02-14T15:48:39Z</time>
      </trkpt>
      <trkpt lat="48.09014" lon="6.53972">
        <ele>401.8</ele>
        <time>2025-02-14T15:48:48Z</time>
      </trkpt>
      <trkpt lat="48.09005" lon="6.53976">
        <ele>401.7</ele>
        <time>2025-02-14T15:48:58Z</time>
      </trkpt>
      <trkpt lat="48.08996" lon="6.53984">
        <ele>401.7</ele>
        <time>2025-02-14T15:49:06Z</time>
      </trkpt>
      <trkpt lat="48.08989" lon="6.53993">
        <ele>401.6</ele>
        <time>2025-02-14T15:49:11Z</time>
      </trkpt>
      <trkpt lat="48.08981" lon="6.53999">
        <ele>401.5</ele>
        <time>2025-02-14T15:49:20Z</time>
      </trkpt>
      <trkpt lat="48.08972" lon="6.54006">
        <ele>401.5</ele>
        <time>2025-02-14T15:49:28Z</time>
      </trkpt>
      <trkpt lat="48.08962" lon="6.54014">
        <ele>401.4</ele>
        <time>2025-02-14T15:49:37Z</time>
      </trkpt>
      <trkpt lat="48.08954" lon="6.54021">
        <ele>401.2</ele>
        <time>2025-02-14T15:49:45Z</time>
      </trkpt>
      <trkpt lat="48.08948" lon="6.54032">
        <ele>400.9</ele>
        <time>2025-02-14T15:49:50Z</time>
      </trkpt>
      <trkpt lat="48.08939" lon="6.54039">
        <ele>400.6</ele>
        <time>2025-02-14T15:49:53Z</time>
      </trkpt>
      <trkpt lat="48.0893" lon="6.54043">
        <ele>400.2</ele>
        <time>2025-02-14T15:50:00Z</time>
      </trkpt>
      <trkpt lat="48.08921" lon="6.54051">
        <ele>399.9</ele>
        <time>2025-02-14T15:50:07Z</time>
      </trkpt>
      <trkpt lat="48.08912" lon="6.54057">
        <ele>399.5</ele>
        <time>2025-02-14T15:50:13Z</time>
      </trkpt>
      <trkpt lat="48.08904" lon="6.54064">
        <ele>399.2</ele>
        <time>2025-02-14T15:50:19Z</time>
      </trkpt>
      <trkpt lat="48.08897" lon="6.54076">
        <ele>398.8</ele>
        <time>2025-02-14T15:50:26Z</time>
      </trkpt>
      <trkpt lat="48.08893" lon="6.54088">
        <ele>398.4</ele>
        <time>2025-02-14T15:50:33Z</time>
      </trkpt>
      <trkpt lat="48.0889" lon="6.54102">
        <ele>397.9</ele>
        <time>2025-02-14T15:50:41Z</time>
      </trkpt>
      <trkpt lat="48.08884" lon="6.54113">
        <ele>397.6</ele>
        <time>2025-02-14T15:50:50Z</time>
      </trkpt>
      <trkpt lat="48.08877" lon="6.54122">
        <ele>397.5</ele>
        <time>2025-02-14T15:50:57Z</time>
      </trkpt>
      <trkpt lat="48.08868" lon="6.5413">
        <ele>397.4</ele>
        <time>2025-02-14T15:51:05Z</time>
      </trkpt>
      <trkpt lat="48.08863" lon="6.54143">
        <ele>397.5</ele>
        <time>2025-02-14T15:51:13Z</time>
      </trkpt>
      <trkpt lat="48.08857" lon="6.54153">
        <ele>397.7</ele>
        <time>2025-02-14T15:51:21Z</time>
      </trkpt>
      <trkpt lat="48.08851" lon="6.54165">
        <ele>398.1</ele>
        <time>2025-02-14T15:51:28Z</time>
      </trkpt>
      <trkpt lat="48.08849" lon="6.54179">
        <ele>398.6</ele>
        <time>2025-02-14T15:51:37Z</time>
      </trkpt>
      <trkpt lat="48.08843" lon="6.54192">
        <ele>399.1</ele>
        <time>2025-02-14T15:51:45Z</time>
      </trkpt>
      <trkpt lat="48.08836" lon="6.54202">
        <ele>399.5</ele>
        <time>2025-02-14T15:51:51Z</time>
      </trkpt>
      <trkpt lat="48.08829" lon="6.54213">
        <ele>399.8</ele>
        <time>2025-02-14T15:51:57Z</time>
      </trkpt>
      <trkpt lat="48.08825" lon="6.54226">
        <ele>400</ele>
        <time>2025-02-14T15:52:03Z</time>
      </trkpt>
      <trkpt lat="48.08818" lon="6.54236">
        <ele>400.2</ele>
        <time>2025-02-14T15:52:09Z</time>
      </trkpt>
      <trkpt lat="48.08815" lon="6.5425">
        <ele>400.5</ele>
        <time>2025-02-14T15:52:17Z</time>
      </trkpt>
      <trkpt lat="48.0881" lon="6.54261">
        <ele>400.8</ele>
        <time>2025-02-14T15:52:24Z</time>
      </trkpt>
      <trkpt lat="48.08804" lon="6.54274">
        <ele>401.3</ele>
        <time>2025-02-14T15:52:30Z</time>
      </trkpt>
      <trkpt lat="48.08799" lon="6.54286">
        <ele>401.8</ele>
        <time>2025-02-14T15:52:36Z</time>
      </trkpt>
      <trkpt lat="48.08796" lon="6.543">
        <ele>402.2</ele>
        <time>2025-02-14T15:52:44Z</time>
      </trkpt>
      <trkpt lat="48.08793" lon="6.54314">
        <ele>402.4</ele>
        <time>2025-02-14T15:52:55Z</time>
      </trkpt>
      <trkpt lat="48.08791" lon="6.54328">
        <ele>402.5</ele>
        <time>2025-02-14T15:53:02Z</time>
      </trkpt>
      <trkpt lat="48.08788" lon="6.54342">
        <ele>402.5</ele>
        <time>2025-02-14T15:53:09Z</time>
      </trkpt>
      <trkpt lat="48.08788" lon="6.54358">
        <ele>402.5</ele>
        <time>2025-02-14T15:53:17Z</time>
      </trkpt>
      <trkpt lat="48.08787" lon="6.54373">
        <ele>402.3</ele>
        <time>2025-02-14T15:53:26Z</time>
      </trkpt>
      <trkpt lat="48.08787" lon="6.54388">
        <ele>402.3</ele>
        <time>2025-02-14T15:53:34Z</time>
      </trkpt>
      <trkpt lat="48.08787" lon="6.54402">
        <ele>402.4</ele>
        <time>2025-02-14T15:53:41Z</time>
      </trkpt>
      <trkpt lat="48.08787" lon="6.54416">
        <ele>402.6</ele>
        <time>2025-02-14T15:53:48Z</time>
      </trkpt>
      <trkpt lat="48.08785" lon="6.5443">
        <ele>402.9</ele>
        <time>2025-02-14T15:53:55Z</time>
      </trkpt>
      <trkpt lat="48.08782" lon="6.54443">
        <ele>403.2</ele>
        <time>2025-02-14T15:54:05Z</time>
      </trkpt>
      <trkpt lat="48.08787" lon="6.54456">
        <ele>403.8</ele>
        <time>2025-02-14T15:54:13Z</time>
      </trkpt>
      <trkpt lat="48.0879" lon="6.54463">
        <ele>404.2</ele>
        <time>2025-02-14T15:54:17Z</time>
      </trkpt>
      <trkpt lat="48.0879" lon="6.54464">
        <ele>404.4</ele>
        <time>2025-02-14T15:54:18Z</time>
      </trkpt>
      <trkpt lat="48.08791" lon="6.54467">
        <ele>404.5</ele>
        <time>2025-02-14T15:54:19Z</time>
      </trkpt>
      <trkpt lat="48.08791" lon="6.54469">
        <ele>404.7</ele>
        <time>2025-02-14T15:54:20Z</time>
      </trkpt>
      <trkpt lat="48.08791" lon="6.54471">
        <ele>404.8</ele>
        <time>2025-02-14T15:54:21Z</time>
      </trkpt>
      <trkpt lat="48.08794" lon="6.54484">
        <ele>405.6</ele>
        <time>2025-02-14T15:54:28Z</time>
      </trkpt>
      <trkpt lat="48.08798" lon="6.54498">
        <ele>406.4</ele>
        <time>2025-02-14T15:54:37Z</time>
      </trkpt>
      <trkpt lat="48.08792" lon="6.54509">
        <ele>407.1</ele>
        <time>2025-02-14T15:54:50Z</time>
      </trkpt>
      <trkpt lat="48.0879" lon="6.54524">
        <ele>407.6</ele>
        <time>2025-02-14T15:54:58Z</time>
      </trkpt>
      <trkpt lat="48.08787" lon="6.54537">
        <ele>407.9</ele>
        <time>2025-02-14T15:55:07Z</time>
      </trkpt>
      <trkpt lat="48.08789" lon="6.54551">
        <ele>408</ele>
        <time>2025-02-14T15:55:12Z</time>
      </trkpt>
      <trkpt lat="48.08791" lon="6.54565">
        <ele>407.9</ele>
        <time>2025-02-14T15:55:18Z</time>
      </trkpt>
      <trkpt lat="48.0879" lon="6.5458">
        <ele>407.7</ele>
        <time>2025-02-14T15:55:26Z</time>
      </trkpt>
      <trkpt lat="48.08788" lon="6.54594">
        <ele>407.5</ele>
        <time>2025-02-14T15:55:33Z</time>
      </trkpt>
      <trkpt lat="48.08784" lon="6.54607">
        <ele>407.2</ele>
        <time>2025-02-14T15:55:42Z</time>
      </trkpt>
      <trkpt lat="48.08782" lon="6.54622">
        <ele>407</ele>
        <time>2025-02-14T15:55:48Z</time>
      </trkpt>
      <trkpt lat="48.08777" lon="6.54637">
        <ele>406.9</ele>
        <time>2025-02-14T15:55:55Z</time>
      </trkpt>
      <trkpt lat="48.08775" lon="6.54648">
        <ele>406.9</ele>
        <time>2025-02-14T15:56:12Z</time>
      </trkpt>
      <trkpt lat="48.08775" lon="6.54648">
        <ele>406.9</ele>
        <time>2025-02-14T15:56:13Z</time>
      </trkpt>
      <trkpt lat="48.08775" lon="6.54648">
        <ele>406.9</ele>
        <time>2025-02-14T15:56:14Z</time>
      </trkpt>
      <trkpt lat="48.08773" lon="6.54652">
        <ele>407</ele>
        <time>2025-02-14T15:56:28Z</time>
      </trkpt>
      <trkpt lat="48.08773" lon="6.54654">
        <ele>407</ele>
        <time>2025-02-14T15:56:29Z</time>
      </trkpt>
      <trkpt lat="48.08773" lon="6.54655">
        <ele>407</ele>
        <time>2025-02-14T15:56:30Z</time>
      </trkpt>
      <trkpt lat="48.08769" lon="6.54669">
        <ele>407.3</ele>
        <time>2025-02-14T15:56:38Z</time>
      </trkpt>
      <trkpt lat="48.0877" lon="6.54684">
        <ele>407.7</ele>
        <time>2025-02-14T15:56:46Z</time>
      </trkpt>
      <trkpt lat="48.08767" lon="6.54697">
        <ele>408</ele>
        <time>2025-02-14T15:56:55Z</time>
      </trkpt>
      <trkpt lat="48.08767" lon="6.54711">
        <ele>408.6</ele>
        <time>2025-02-14T15:57:05Z</time>
      </trkpt>
      <trkpt lat="48.08764" lon="6.54726">
        <ele>409.4</ele>
        <time>2025-02-14T15:57:12Z</time>
      </trkpt>
      <trkpt lat="48.08762" lon="6.54731">
        <ele>409.6</ele>
        <time>2025-02-14T15:57:19Z</time>
      </trkpt>
      <trkpt lat="48.08762" lon="6.54731">
        <ele>409.6</ele>
        <time>2025-02-14T15:57:20Z</time>
      </trkpt>
      <trkpt lat="48.08762" lon="6.54731">
        <ele>409.6</ele>
        <time>2025-02-14T15:57:21Z</time>
      </trkpt>
      <trkpt lat="48.08762" lon="6.54731">
        <ele>409.6</ele>
        <time>2025-02-14T15:57:22Z</time>
      </trkpt>
      <trkpt lat="48.08763" lon="6.54731">
        <ele>409.7</ele>
        <time>2025-02-14T15:57:23Z</time>
      </trkpt>
      <trkpt lat="48.08763" lon="6.54733">
        <ele>409.8</ele>
        <time>2025-02-14T15:57:24Z</time>
      </trkpt>
      <trkpt lat="48.08764" lon="6.54747">
        <ele>411.1</ele>
        <time>2025-02-14T15:57:32Z</time>
      </trkpt>
      <trkpt lat="48.08766" lon="6.54751">
        <ele>411.3</ele>
        <time>2025-02-14T15:57:51Z</time>
      </trkpt>
      <trkpt lat="48.08766" lon="6.5475">
        <ele>411.3</ele>
        <time>2025-02-14T15:57:52Z</time>
      </trkpt>
      <trkpt lat="48.08766" lon="6.5475">
        <ele>411.3</ele>
        <time>2025-02-14T15:57:53Z</time>
      </trkpt>
      <trkpt lat="48.08766" lon="6.5475">
        <ele>411.3</ele>
        <time>2025-02-14T15:57:54Z</time>
      </trkpt>
      <trkpt lat="48.08764" lon="6.5475">
        <ele>411.4</ele>
        <time>2025-02-14T15:58:00Z</time>
      </trkpt>
      <trkpt lat="48.08764" lon="6.54751">
        <ele>411.5</ele>
        <time>2025-02-14T15:58:01Z</time>
      </trkpt>
      <trkpt lat="48.08764" lon="6.54751">
        <ele>411.5</ele>
        <time>2025-02-14T15:58:02Z</time>
      </trkpt>
      <trkpt lat="48.08763" lon="6.54752">
        <ele>411.6</ele>
        <time>2025-02-14T15:58:03Z</time>
      </trkpt>
      <trkpt lat="48.08763" lon="6.54753">
        <ele>411.6</ele>
        <time>2025-02-14T15:58:04Z</time>
      </trkpt>
      <trkpt lat="48.08763" lon="6.54753">
        <ele>411.6</ele>
        <time>2025-02-14T15:58:05Z</time>
      </trkpt>
      <trkpt lat="48.08763" lon="6.54754">
        <ele>411.7</ele>
        <time>2025-02-14T15:58:06Z</time>
      </trkpt>
      <trkpt lat="48.08766" lon="6.54757">
        <ele>411.9</ele>
        <time>2025-02-14T15:58:30Z</time>
      </trkpt>
      <trkpt lat="48.08765" lon="6.54756">
        <ele>412</ele>
        <time>2025-02-14T15:58:31Z</time>
      </trkpt>
      <trkpt lat="48.08766" lon="6.54752">
        <ele>412.2</ele>
        <time>2025-02-14T15:58:34Z</time>
      </trkpt>
      <trkpt lat="48.08767" lon="6.54751">
        <ele>412.3</ele>
        <time>2025-02-14T15:58:35Z</time>
      </trkpt>
      <trkpt lat="48.08767" lon="6.54751">
        <ele>412.3</ele>
        <time>2025-02-14T15:58:36Z</time>
      </trkpt>
      <trkpt lat="48.08765" lon="6.54748">
        <ele>412.5</ele>
        <time>2025-02-14T15:59:09Z</time>
      </trkpt>
      <trkpt lat="48.08765" lon="6.54748">
        <ele>412.5</ele>
        <time>2025-02-14T15:59:10Z</time>
      </trkpt>
      <trkpt lat="48.08765" lon="6.54748">
        <ele>412.5</ele>
        <time>2025-02-14T15:59:11Z</time>
      </trkpt>
      <trkpt lat="48.08765" lon="6.54748">
        <ele>412.5</ele>
        <time>2025-02-14T15:59:12Z</time>
      </trkpt>
      <trkpt lat="48.08765" lon="6.54748">
        <ele>412.5</ele>
        <time>2025-02-14T15:59:13Z</time>
      </trkpt>
      <trkpt lat="48.08765" lon="6.54749">
        <ele>412.6</ele>
        <time>2025-02-14T15:59:37Z</time>
      </trkpt>
      <trkpt lat="48.08765" lon="6.54749">
        <ele>412.6</ele>
        <time>2025-02-14T15:59:38Z</time>
      </trkpt>
      <trkpt lat="48.08765" lon="6.5475">
        <ele>412.6</ele>
        <time>2025-02-14T15:59:39Z</time>
      </trkpt>
      <trkpt lat="48.08765" lon="6.5475">
        <ele>412.7</ele>
        <time>2025-02-14T15:59:40Z</time>
      </trkpt>
      <trkpt lat="48.08765" lon="6.5475">
        <ele>412.7</ele>
        <time>2025-02-14T15:59:41Z</time>
      </trkpt>
      <trkpt lat="48.08759" lon="6.54754">
        <ele>413.2</ele>
        <time>2025-02-14T16:00:22Z</time>
      </trkpt>
      <trkpt lat="48.08759" lon="6.54754">
        <ele>413.2</ele>
        <time>2025-02-14T16:00:23Z</time>
      </trkpt>
      <trkpt lat="48.08759" lon="6.54754">
        <ele>413.2</ele>
        <time>2025-02-14T16:00:24Z</time>
      </trkpt>
      <trkpt lat="48.08759" lon="6.54753">
        <ele>413.3</ele>
        <time>2025-02-14T16:00:25Z</time>
      </trkpt>
      <trkpt lat="48.08759" lon="6.54753">
        <ele>413.3</ele>
        <time>2025-02-14T16:00:26Z</time>
      </trkpt>
      <trkpt lat="48.0876" lon="6.54752">
        <ele>413.3</ele>
        <time>2025-02-14T16:00:33Z</time>
      </trkpt>
      <trkpt lat="48.0876" lon="6.54752">
        <ele>413.4</ele>
        <time>2025-02-14T16:00:34Z</time>
      </trkpt>
      <trkpt lat="48.0876" lon="6.5475">
        <ele>413.4</ele>
        <time>2025-02-14T16:00:35Z</time>
      </trkpt>
      <trkpt lat="48.0876" lon="6.54748">
        <ele>413.5</ele>
        <time>2025-02-14T16:00:36Z</time>
      </trkpt>
      <trkpt lat="48.08759" lon="6.5475">
        <ele>413.7</ele>
        <time>2025-02-14T16:01:12Z</time>
      </trkpt>
      <trkpt lat="48.08759" lon="6.5475">
        <ele>413.7</ele>
        <time>2025-02-14T16:01:13Z</time>
      </trkpt>
      <trkpt lat="48.08759" lon="6.5475">
        <ele>413.7</ele>
        <time>2025-02-14T16:01:14Z</time>
      </trkpt>
      <trkpt lat="48.08759" lon="6.5475">
        <ele>413.7</ele>
        <time>2025-02-14T16:01:15Z</time>
      </trkpt>
      <trkpt lat="48.08759" lon="6.5475">
        <ele>413.7</ele>
        <time>2025-02-14T16:01:16Z</time>
      </trkpt>
      <trkpt lat="48.08762" lon="6.54752">
        <ele>414</ele>
        <time>2025-02-14T16:02:07Z</time>
      </trkpt>
      <trkpt lat="48.08762" lon="6.54752">
        <ele>414</ele>
        <time>2025-02-14T16:02:08Z</time>
      </trkpt>
      <trkpt lat="48.08762" lon="6.54752">
        <ele>414</ele>
        <time>2025-02-14T16:02:09Z</time>
      </trkpt>
      <trkpt lat="48.08762" lon="6.54752">
        <ele>414</ele>
        <time>2025-02-14T16:02:10Z</time>
      </trkpt>
      <trkpt lat="48.08762" lon="6.54752">
        <ele>414</ele>
        <time>2025-02-14T16:02:11Z</time>
      </trkpt>
      <trkpt lat="48.08769" lon="6.54743">
        <ele>414.7</ele>
        <time>2025-02-14T16:03:08Z</time>
      </trkpt>
      <trkpt lat="48.08769" lon="6.54743">
        <ele>414.7</ele>
        <time>2025-02-14T16:03:12Z</time>
      </trkpt>
      <trkpt lat="48.08769" lon="6.54743">
        <ele>414.7</ele>
        <time>2025-02-14T16:03:13Z</time>
      </trkpt>
      <trkpt lat="48.08768" lon="6.54743">
        <ele>414.8</ele>
        <time>2025-02-14T16:03:14Z</time>
      </trkpt>
      <trkpt lat="48.08768" lon="6.54743">
        <ele>414.8</ele>
        <time>2025-02-14T16:03:15Z</time>
      </trkpt>
      <trkpt lat="48.08767" lon="6.54744">
        <ele>414.9</ele>
        <time>2025-02-14T16:03:16Z</time>
      </trkpt>
      <trkpt lat="48.08762" lon="6.54755">
        <ele>415.6</ele>
        <time>2025-02-14T16:04:10Z</time>
      </trkpt>
      <trkpt lat="48.08761" lon="6.54761">
        <ele>415.8</ele>
        <time>2025-02-14T16:04:17Z</time>
      </trkpt>
      <trkpt lat="48.08761" lon="6.54761">
        <ele>415.8</ele>
        <time>2025-02-14T16:04:18Z</time>
      </trkpt>
      <trkpt lat="48.08763" lon="6.54756">
        <ele>416.1</ele>
        <time>2025-02-14T16:04:22Z</time>
      </trkpt>
      <trkpt lat="48.08764" lon="6.54755">
        <ele>416.2</ele>
        <time>2025-02-14T16:04:23Z</time>
      </trkpt>
      <trkpt lat="48.08764" lon="6.54755">
        <ele>416.2</ele>
        <time>2025-02-14T16:04:24Z</time>
      </trkpt>
      <trkpt lat="48.08764" lon="6.54758">
        <ele>416.4</ele>
        <time>2025-02-14T16:05:00Z</time>
      </trkpt>
      <trkpt lat="48.08764" lon="6.54758">
        <ele>416.4</ele>
        <time>2025-02-14T16:05:01Z</time>
      </trkpt>
      <trkpt lat="48.08764" lon="6.54758">
        <ele>416.4</ele>
        <time>2025-02-14T16:05:02Z</time>
      </trkpt>
      <trkpt lat="48.08764" lon="6.54758">
        <ele>416.4</ele>
        <time>2025-02-14T16:05:03Z</time>
      </trkpt>
      <trkpt lat="48.08764" lon="6.54759">
        <ele>416.4</ele>
        <time>2025-02-14T16:05:04Z</time>
      </trkpt>
      <trkpt lat="48.08763" lon="6.5476">
        <ele>416.5</ele>
        <time>2025-02-14T16:05:05Z</time>
      </trkpt>
      <trkpt lat="48.08763" lon="6.5476">
        <ele>416.5</ele>
        <time>2025-02-14T16:05:06Z</time>
      </trkpt>
      <trkpt lat="48.08763" lon="6.5476">
        <ele>416.5</ele>
        <time>2025-02-14T16:05:07Z</time>
      </trkpt>
      <trkpt lat="48.08763" lon="6.5476">
        <ele>416.5</ele>
        <time>2025-02-14T16:05:08Z</time>
      </trkpt>
      <trkpt lat="48.08763" lon="6.5476">
        <ele>416.6</ele>
        <time>2025-02-14T16:05:09Z</time>
      </trkpt>
      <trkpt lat="48.08769" lon="6.54748">
        <ele>417.3</ele>
        <time>2025-02-14T16:06:31Z</time>
      </trkpt>
      <trkpt lat="48.08767" lon="6.54752">
        <ele>417.6</ele>
        <time>2025-02-14T16:06:47Z</time>
      </trkpt>
      <trkpt lat="48.08768" lon="6.54754">
        <ele>417.7</ele>
        <time>2025-02-14T16:06:48Z</time>
      </trkpt>
      <trkpt lat="48.08769" lon="6.54769">
        <ele>418.4</ele>
        <time>2025-02-14T16:06:54Z</time>
      </trkpt>
      <trkpt lat="48.0877" lon="6.54783">
        <ele>419.1</ele>
        <time>2025-02-14T16:07:03Z</time>
      </trkpt>
      <trkpt lat="48.08769" lon="6.54796">
        <ele>419.7</ele>
        <time>2025-02-14T16:07:08Z</time>
      </trkpt>
      <trkpt lat="48.08772" lon="6.54811">
        <ele>420.5</ele>
        <time>2025-02-14T16:07:16Z</time>
      </trkpt>
      <trkpt lat="48.0877" lon="6.54825">
        <ele>421.1</ele>
        <time>2025-02-14T16:07:23Z</time>
      </trkpt>
      <trkpt lat="48.08768" lon="6.54839">
        <ele>421.9</ele>
        <time>2025-02-14T16:07:31Z</time>
      </trkpt>
      <trkpt lat="48.08765" lon="6.54853">
        <ele>423.1</ele>
        <time>2025-02-14T16:07:41Z</time>
      </trkpt>
      <trkpt lat="48.08763" lon="6.54867">
        <ele>424.3</ele>
        <time>2025-02-14T16:07:51Z</time>
      </trkpt>
      <trkpt lat="48.08763" lon="6.54881">
        <ele>425.5</ele>
        <time>2025-02-14T16:08:00Z</time>
      </trkpt>
      <trkpt lat="48.08764" lon="6.54896">
        <ele>426.9</ele>
        <time>2025-02-14T16:08:09Z</time>
      </trkpt>
      <trkpt lat="48.08763" lon="6.54909">
        <ele>428.3</ele>
        <time>2025-02-14T16:08:16Z</time>
      </trkpt>
      <trkpt lat="48.08766" lon="6.54923">
        <ele>429.9</ele>
        <time>2025-02-14T16:08:24Z</time>
      </trkpt>
      <trkpt lat="48.08766" lon="6.54936">
        <ele>431.4</ele>
        <time>2025-02-14T16:08:32Z</time>
      </trkpt>
      <trkpt lat="48.08766" lon="6.54936">
        <ele>431.4</ele>
        <time>2025-02-14T16:08:33Z</time>
      </trkpt>
      <trkpt lat="48.08767" lon="6.54938">
        <ele>431.8</ele>
        <time>2025-02-14T16:08:37Z</time>
      </trkpt>
      <trkpt lat="48.08767" lon="6.54939">
        <ele>431.9</ele>
        <time>2025-02-14T16:08:38Z</time>
      </trkpt>
      <trkpt lat="48.0877" lon="6.54954">
        <ele>434.1</ele>
        <time>2025-02-14T16:08:50Z</time>
      </trkpt>
      <trkpt lat="48.08769" lon="6.54968">
        <ele>436.3</ele>
        <time>2025-02-14T16:08:58Z</time>
      </trkpt>
      <trkpt lat="48.08773" lon="6.54983">
        <ele>438.4</ele>
        <time>2025-02-14T16:09:08Z</time>
      </trkpt>
      <trkpt lat="48.08776" lon="6.54996">
        <ele>440.4</ele>
        <time>2025-02-14T16:09:18Z</time>
      </trkpt>
      <trkpt lat="48.0878" lon="6.5501">
        <ele>441.9</ele>
        <time>2025-02-14T16:09:25Z</time>
      </trkpt>
      <trkpt lat="48.08785" lon="6.55021">
        <ele>443.2</ele>
        <time>2025-02-14T16:09:34Z</time>
      </trkpt>
      <trkpt lat="48.08788" lon="6.55036">
        <ele>444.6</ele>
        <time>2025-02-14T16:09:42Z</time>
      </trkpt>
      <trkpt lat="48.08789" lon="6.5505">
        <ele>445.8</ele>
        <time>2025-02-14T16:09:52Z</time>
      </trkpt>
      <trkpt lat="48.08789" lon="6.55064">
        <ele>447.2</ele>
        <time>2025-02-14T16:10:04Z</time>
      </trkpt>
      <trkpt lat="48.0879" lon="6.55078">
        <ele>448.7</ele>
        <time>2025-02-14T16:10:13Z</time>
      </trkpt>
      <trkpt lat="48.0879" lon="6.55093">
        <ele>450.2</ele>
        <time>2025-02-14T16:10:20Z</time>
      </trkpt>
      <trkpt lat="48.08791" lon="6.55107">
        <ele>451.7</ele>
        <time>2025-02-14T16:10:32Z</time>
      </trkpt>
      <trkpt lat="48.08792" lon="6.55121">
        <ele>453</ele>
        <time>2025-02-14T16:10:43Z</time>
      </trkpt>
      <trkpt lat="48.08793" lon="6.55136">
        <ele>454.2</ele>
        <time>2025-02-14T16:10:51Z</time>
      </trkpt>
      <trkpt lat="48.08796" lon="6.5515">
        <ele>455.3</ele>
        <time>2025-02-14T16:10:59Z</time>
      </trkpt>
      <trkpt lat="48.088" lon="6.55164">
        <ele>456.4</ele>
        <time>2025-02-14T16:11:07Z</time>
      </trkpt>
      <trkpt lat="48.08803" lon="6.55177">
        <ele>457.3</ele>
        <time>2025-02-14T16:11:16Z</time>
      </trkpt>
      <trkpt lat="48.08809" lon="6.55188">
        <ele>458.1</ele>
        <time>2025-02-14T16:11:25Z</time>
      </trkpt>
      <trkpt lat="48.08813" lon="6.55201">
        <ele>458.9</ele>
        <time>2025-02-14T16:11:33Z</time>
      </trkpt>
      <trkpt lat="48.08816" lon="6.55214">
        <ele>459.6</ele>
        <time>2025-02-14T16:11:40Z</time>
      </trkpt>
      <trkpt lat="48.08823" lon="6.55225">
        <ele>460.3</ele>
        <time>2025-02-14T16:11:46Z</time>
      </trkpt>
      <trkpt lat="48.08827" lon="6.55238">
        <ele>460.9</ele>
        <time>2025-02-14T16:11:54Z</time>
      </trkpt>
      <trkpt lat="48.08832" lon="6.55251">
        <ele>461.5</ele>
        <time>2025-02-14T16:12:05Z</time>
      </trkpt>
      <trkpt lat="48.0884" lon="6.55258">
        <ele>461.9</ele>
        <time>2025-02-14T16:12:13Z</time>
      </trkpt>
      <trkpt lat="48.08846" lon="6.55269">
        <ele>462.2</ele>
        <time>2025-02-14T16:12:22Z</time>
      </trkpt>
      <trkpt lat="48.08853" lon="6.5528">
        <ele>462.6</ele>
        <time>2025-02-14T16:12:29Z</time>
      </trkpt>
      <trkpt lat="48.08858" lon="6.5529">
        <ele>463.1</ele>
        <time>2025-02-14T16:12:35Z</time>
      </trkpt>
      <trkpt lat="48.08865" lon="6.55302">
        <ele>463.7</ele>
        <time>2025-02-14T16:12:43Z</time>
      </trkpt>
      <trkpt lat="48.08869" lon="6.55314">
        <ele>464.3</ele>
        <time>2025-02-14T16:12:51Z</time>
      </trkpt>
      <trkpt lat="48.08875" lon="6.55326">
        <ele>465.2</ele>
        <time>2025-02-14T16:13:01Z</time>
      </trkpt>
      <trkpt lat="48.08879" lon="6.55339">
        <ele>466.3</ele>
        <time>2025-02-14T16:13:08Z</time>
      </trkpt>
      <trkpt lat="48.08885" lon="6.55351">
        <ele>467.5</ele>
        <time>2025-02-14T16:13:16Z</time>
      </trkpt>
      <trkpt lat="48.08893" lon="6.55359">
        <ele>468.7</ele>
        <time>2025-02-14T16:13:25Z</time>
      </trkpt>
      <trkpt lat="48.089" lon="6.55368">
        <ele>469.7</ele>
        <time>2025-02-14T16:13:33Z</time>
      </trkpt>
      <trkpt lat="48.08909" lon="6.55373">
        <ele>470.1</ele>
        <time>2025-02-14T16:13:42Z</time>
      </trkpt>
      <trkpt lat="48.08918" lon="6.55375">
        <ele>470.4</ele>
        <time>2025-02-14T16:13:50Z</time>
      </trkpt>
      <trkpt lat="48.08927" lon="6.55379">
        <ele>470.6</ele>
        <time>2025-02-14T16:13:59Z</time>
      </trkpt>
      <trkpt lat="48.08936" lon="6.55384">
        <ele>470.7</ele>
        <time>2025-02-14T16:14:07Z</time>
      </trkpt>
      <trkpt lat="48.08944" lon="6.55391">
        <ele>470.7</ele>
        <time>2025-02-14T16:14:14Z</time>
      </trkpt>
      <trkpt lat="48.08953" lon="6.55396">
        <ele>471.1</ele>
        <time>2025-02-14T16:14:22Z</time>
      </trkpt>
      <trkpt lat="48.08962" lon="6.55402">
        <ele>471.6</ele>
        <time>2025-02-14T16:14:29Z</time>
      </trkpt>
      <trkpt lat="48.08971" lon="6.55408">
        <ele>472.1</ele>
        <time>2025-02-14T16:14:38Z</time>
      </trkpt>
      <trkpt lat="48.08979" lon="6.55416">
        <ele>472.7</ele>
        <time>2025-02-14T16:14:47Z</time>
      </trkpt>
      <trkpt lat="48.08987" lon="6.55424">
        <ele>473.5</ele>
        <time>2025-02-14T16:14:55Z</time>
      </trkpt>
      <trkpt lat="48.08993" lon="6.55435">
        <ele>474.5</ele>
        <time>2025-02-14T16:15:03Z</time>
      </trkpt>
      <trkpt lat="48.08998" lon="6.55446">
        <ele>475.4</ele>
        <time>2025-02-14T16:15:12Z</time>
      </trkpt>
      <trkpt lat="48.09004" lon="6.55456">
        <ele>476.4</ele>
        <time>2025-02-14T16:15:20Z</time>
      </trkpt>
      <trkpt lat="48.09012" lon="6.55464">
        <ele>477.2</ele>
        <time>2025-02-14T16:15:31Z</time>
      </trkpt>
      <trkpt lat="48.09021" lon="6.55458">
        <ele>477.6</ele>
        <time>2025-02-14T16:15:40Z</time>
      </trkpt>
      <trkpt lat="48.09031" lon="6.55455">
        <ele>478</ele>
        <time>2025-02-14T16:15:48Z</time>
      </trkpt>
      <trkpt lat="48.0904" lon="6.55454">
        <ele>478.4</ele>
        <time>2025-02-14T16:15:57Z</time>
      </trkpt>
      <trkpt lat="48.09049" lon="6.55455">
        <ele>478.7</ele>
        <time>2025-02-14T16:16:04Z</time>
      </trkpt>
      <trkpt lat="48.09061" lon="6.55459">
        <ele>479.1</ele>
        <time>2025-02-14T16:16:11Z</time>
      </trkpt>
      <trkpt lat="48.09069" lon="6.55465">
        <ele>479.3</ele>
        <time>2025-02-14T16:16:18Z</time>
      </trkpt>
      <trkpt lat="48.09077" lon="6.55471">
        <ele>479.5</ele>
        <time>2025-02-14T16:16:27Z</time>
      </trkpt>
      <trkpt lat="48.09077" lon="6.55471">
        <ele>479.5</ele>
        <time>2025-02-14T16:16:27Z</time>
      </trkpt>
      <trkpt lat="48.09077" lon="6.55471">
        <ele>479.5</ele>
        <time>2025-02-14T16:16:27Z</time>
      </trkpt>
    </trkseg>
  </trk>
</gpx>